<?xml version="1.0" encoding="UTF-8" standalone="no" ?>
<gpx xmlns="http://www.topografix.com/GPX/1/1" xmlns:xsi="http://www.w3.org/2001/XMLSchema-instance" xsi:schemaLocation="http://www.topografix.com/GPX/1/1 http://www.topografix.com/GPX/1/1/gpx.xsd" version="1.1" creator="VisuGPX - https://www.visugpx.com">
  <metadata>
    <name>Semaine 16 - Entrainement 2</name>
    <desc><![CDATA[Le Verdelet]]></desc>
  </metadata>
  <wpt lat="45.37631" lon="3.75106">
    <ele>697.59997558594</ele>
    <name><![CDATA[Start]]></name>
  </wpt>
  <wpt lat="45.37587" lon="3.75536">
    <ele>669.09997558594</ele>
    <name><![CDATA[End]]></name>
  </wpt>
  <trk>
    <name><![CDATA[Semaine 16 - Entrainement 2_1]]></name>
    <trkseg>
      <trkpt lat="45.37631" lon="3.75106">
        <ele>697.59997558594</ele>
        <time>2012-01-28T08:36:08Z</time>
      </trkpt>
      <trkpt lat="45.37636" lon="3.75113">
        <ele>696.5</ele>
        <time>2012-01-28T08:36:11Z</time>
      </trkpt>
      <trkpt lat="45.37638" lon="3.75119">
        <ele>697</ele>
        <time>2012-01-28T08:36:13Z</time>
      </trkpt>
      <trkpt lat="45.37641" lon="3.75126">
        <ele>696.09997558594</ele>
        <time>2012-01-28T08:36:16Z</time>
      </trkpt>
      <trkpt lat="45.37642" lon="3.75133">
        <ele>695.09997558594</ele>
        <time>2012-01-28T08:36:18Z</time>
      </trkpt>
      <trkpt lat="45.37645" lon="3.75141">
        <ele>692.70001220703</ele>
        <time>2012-01-28T08:36:21Z</time>
      </trkpt>
      <trkpt lat="45.37648" lon="3.75165">
        <ele>691.90002441406</ele>
        <time>2012-01-28T08:36:28Z</time>
      </trkpt>
      <trkpt lat="45.37648" lon="3.75173">
        <ele>691.29998779297</ele>
        <time>2012-01-28T08:36:31Z</time>
      </trkpt>
      <trkpt lat="45.37649" lon="3.7518">
        <ele>691.5</ele>
        <time>2012-01-28T08:36:33Z</time>
      </trkpt>
      <trkpt lat="45.37649" lon="3.75195">
        <ele>690.09997558594</ele>
        <time>2012-01-28T08:36:38Z</time>
      </trkpt>
      <trkpt lat="45.37648" lon="3.75203">
        <ele>687.90002441406</ele>
        <time>2012-01-28T08:36:41Z</time>
      </trkpt>
      <trkpt lat="45.37646" lon="3.75212">
        <ele>686.29998779297</ele>
        <time>2012-01-28T08:36:44Z</time>
      </trkpt>
      <trkpt lat="45.37646" lon="3.75228">
        <ele>684.70001220703</ele>
        <time>2012-01-28T08:36:49Z</time>
      </trkpt>
      <trkpt lat="45.37647" lon="3.75236">
        <ele>685.5</ele>
        <time>2012-01-28T08:36:52Z</time>
      </trkpt>
      <trkpt lat="45.37653" lon="3.75238">
        <ele>685.59997558594</ele>
        <time>2012-01-28T08:36:55Z</time>
      </trkpt>
      <trkpt lat="45.37658" lon="3.75235">
        <ele>686.20001220703</ele>
        <time>2012-01-28T08:36:58Z</time>
      </trkpt>
      <trkpt lat="45.3767" lon="3.75227">
        <ele>685.20001220703</ele>
        <time>2012-01-28T08:37:04Z</time>
      </trkpt>
      <trkpt lat="45.37674" lon="3.75224">
        <ele>685.20001220703</ele>
        <time>2012-01-28T08:37:06Z</time>
      </trkpt>
      <trkpt lat="45.3768" lon="3.75221">
        <ele>684.70001220703</ele>
        <time>2012-01-28T08:37:08Z</time>
      </trkpt>
      <trkpt lat="45.37684" lon="3.75219">
        <ele>683</ele>
        <time>2012-01-28T08:37:10Z</time>
      </trkpt>
      <trkpt lat="45.37689" lon="3.75217">
        <ele>681.79998779297</ele>
        <time>2012-01-28T08:37:12Z</time>
      </trkpt>
      <trkpt lat="45.37693" lon="3.75214">
        <ele>681.20001220703</ele>
        <time>2012-01-28T08:37:14Z</time>
      </trkpt>
      <trkpt lat="45.37705" lon="3.75204">
        <ele>682.79998779297</ele>
        <time>2012-01-28T08:37:19Z</time>
      </trkpt>
      <trkpt lat="45.37709" lon="3.752">
        <ele>682.40002441406</ele>
        <time>2012-01-28T08:37:21Z</time>
      </trkpt>
      <trkpt lat="45.37713" lon="3.75197">
        <ele>682.70001220703</ele>
        <time>2012-01-28T08:37:23Z</time>
      </trkpt>
      <trkpt lat="45.37722" lon="3.75187">
        <ele>683.09997558594</ele>
        <time>2012-01-28T08:37:28Z</time>
      </trkpt>
      <trkpt lat="45.37725" lon="3.75182">
        <ele>682.59997558594</ele>
        <time>2012-01-28T08:37:30Z</time>
      </trkpt>
      <trkpt lat="45.37732" lon="3.75173">
        <ele>681.59997558594</ele>
        <time>2012-01-28T08:37:34Z</time>
      </trkpt>
      <trkpt lat="45.37737" lon="3.75167">
        <ele>681.90002441406</ele>
        <time>2012-01-28T08:37:37Z</time>
      </trkpt>
      <trkpt lat="45.37741" lon="3.75161">
        <ele>680.90002441406</ele>
        <time>2012-01-28T08:37:39Z</time>
      </trkpt>
      <trkpt lat="45.37746" lon="3.75155">
        <ele>681.79998779297</ele>
        <time>2012-01-28T08:37:42Z</time>
      </trkpt>
      <trkpt lat="45.3775" lon="3.75149">
        <ele>681.40002441406</ele>
        <time>2012-01-28T08:37:45Z</time>
      </trkpt>
      <trkpt lat="45.37759" lon="3.75136">
        <ele>678.90002441406</ele>
        <time>2012-01-28T08:37:51Z</time>
      </trkpt>
      <trkpt lat="45.37762" lon="3.7513">
        <ele>678.59997558594</ele>
        <time>2012-01-28T08:37:53Z</time>
      </trkpt>
      <trkpt lat="45.37766" lon="3.75126">
        <ele>680.59997558594</ele>
        <time>2012-01-28T08:37:55Z</time>
      </trkpt>
      <trkpt lat="45.37769" lon="3.75121">
        <ele>679.09997558594</ele>
        <time>2012-01-28T08:37:57Z</time>
      </trkpt>
      <trkpt lat="45.37774" lon="3.75114">
        <ele>678.70001220703</ele>
        <time>2012-01-28T08:38:00Z</time>
      </trkpt>
      <trkpt lat="45.37778" lon="3.75107">
        <ele>677.20001220703</ele>
        <time>2012-01-28T08:38:03Z</time>
      </trkpt>
      <trkpt lat="45.37781" lon="3.75103">
        <ele>677.70001220703</ele>
        <time>2012-01-28T08:38:05Z</time>
      </trkpt>
      <trkpt lat="45.37785" lon="3.75095">
        <ele>676.79998779297</ele>
        <time>2012-01-28T08:38:08Z</time>
      </trkpt>
      <trkpt lat="45.37789" lon="3.7509">
        <ele>676.5</ele>
        <time>2012-01-28T08:38:11Z</time>
      </trkpt>
      <trkpt lat="45.37794" lon="3.75083">
        <ele>674.70001220703</ele>
        <time>2012-01-28T08:38:14Z</time>
      </trkpt>
      <trkpt lat="45.37797" lon="3.75078">
        <ele>675.5</ele>
        <time>2012-01-28T08:38:16Z</time>
      </trkpt>
      <trkpt lat="45.378" lon="3.75074">
        <ele>675.29998779297</ele>
        <time>2012-01-28T08:38:18Z</time>
      </trkpt>
      <trkpt lat="45.37805" lon="3.75057">
        <ele>673.40002441406</ele>
        <time>2012-01-28T08:38:25Z</time>
      </trkpt>
      <trkpt lat="45.37813" lon="3.75044">
        <ele>672</ele>
        <time>2012-01-28T08:38:32Z</time>
      </trkpt>
      <trkpt lat="45.37821" lon="3.75038">
        <ele>672.90002441406</ele>
        <time>2012-01-28T08:38:34Z</time>
      </trkpt>
      <trkpt lat="45.37826" lon="3.75033">
        <ele>673.70001220703</ele>
        <time>2012-01-28T08:38:36Z</time>
      </trkpt>
      <trkpt lat="45.37829" lon="3.75028">
        <ele>674</ele>
        <time>2012-01-28T08:38:38Z</time>
      </trkpt>
      <trkpt lat="45.37835" lon="3.75021">
        <ele>669.70001220703</ele>
        <time>2012-01-28T08:38:41Z</time>
      </trkpt>
      <trkpt lat="45.3784" lon="3.75016">
        <ele>668.29998779297</ele>
        <time>2012-01-28T08:38:43Z</time>
      </trkpt>
      <trkpt lat="45.37841" lon="3.75008">
        <ele>666</ele>
        <time>2012-01-28T08:38:46Z</time>
      </trkpt>
      <trkpt lat="45.37845" lon="3.75004">
        <ele>664.20001220703</ele>
        <time>2012-01-28T08:38:48Z</time>
      </trkpt>
      <trkpt lat="45.37855" lon="3.74991">
        <ele>664.59997558594</ele>
        <time>2012-01-28T08:38:54Z</time>
      </trkpt>
      <trkpt lat="45.37862" lon="3.74984">
        <ele>664.5</ele>
        <time>2012-01-28T08:38:57Z</time>
      </trkpt>
      <trkpt lat="45.37866" lon="3.7498">
        <ele>664.20001220703</ele>
        <time>2012-01-28T08:38:59Z</time>
      </trkpt>
      <trkpt lat="45.37871" lon="3.74976">
        <ele>664.40002441406</ele>
        <time>2012-01-28T08:39:01Z</time>
      </trkpt>
      <trkpt lat="45.37878" lon="3.7497">
        <ele>664.09997558594</ele>
        <time>2012-01-28T08:39:04Z</time>
      </trkpt>
      <trkpt lat="45.3788" lon="3.74964">
        <ele>663.70001220703</ele>
        <time>2012-01-28T08:39:06Z</time>
      </trkpt>
      <trkpt lat="45.37885" lon="3.7496">
        <ele>663.59997558594</ele>
        <time>2012-01-28T08:39:08Z</time>
      </trkpt>
      <trkpt lat="45.3789" lon="3.74955">
        <ele>665</ele>
        <time>2012-01-28T08:39:10Z</time>
      </trkpt>
      <trkpt lat="45.37893" lon="3.74949">
        <ele>665</ele>
        <time>2012-01-28T08:39:12Z</time>
      </trkpt>
      <trkpt lat="45.37897" lon="3.74944">
        <ele>665.40002441406</ele>
        <time>2012-01-28T08:39:14Z</time>
      </trkpt>
      <trkpt lat="45.37901" lon="3.74938">
        <ele>663.70001220703</ele>
        <time>2012-01-28T08:39:17Z</time>
      </trkpt>
      <trkpt lat="45.37905" lon="3.74934">
        <ele>662.09997558594</ele>
        <time>2012-01-28T08:39:19Z</time>
      </trkpt>
      <trkpt lat="45.37908" lon="3.74928">
        <ele>661.5</ele>
        <time>2012-01-28T08:39:21Z</time>
      </trkpt>
      <trkpt lat="45.37912" lon="3.74923">
        <ele>661.09997558594</ele>
        <time>2012-01-28T08:39:23Z</time>
      </trkpt>
      <trkpt lat="45.37916" lon="3.74919">
        <ele>662.59997558594</ele>
        <time>2012-01-28T08:39:25Z</time>
      </trkpt>
      <trkpt lat="45.3792" lon="3.74915">
        <ele>662.59997558594</ele>
        <time>2012-01-28T08:39:27Z</time>
      </trkpt>
      <trkpt lat="45.37924" lon="3.74908">
        <ele>661.20001220703</ele>
        <time>2012-01-28T08:39:30Z</time>
      </trkpt>
      <trkpt lat="45.37928" lon="3.74903">
        <ele>660.79998779297</ele>
        <time>2012-01-28T08:39:32Z</time>
      </trkpt>
      <trkpt lat="45.37938" lon="3.74892">
        <ele>661.40002441406</ele>
        <time>2012-01-28T08:39:37Z</time>
      </trkpt>
      <trkpt lat="45.37941" lon="3.74887">
        <ele>662.20001220703</ele>
        <time>2012-01-28T08:39:39Z</time>
      </trkpt>
      <trkpt lat="45.37946" lon="3.74883">
        <ele>660.79998779297</ele>
        <time>2012-01-28T08:39:41Z</time>
      </trkpt>
      <trkpt lat="45.3795" lon="3.74879">
        <ele>661.40002441406</ele>
        <time>2012-01-28T08:39:43Z</time>
      </trkpt>
      <trkpt lat="45.37954" lon="3.74875">
        <ele>661.5</ele>
        <time>2012-01-28T08:39:45Z</time>
      </trkpt>
      <trkpt lat="45.3796" lon="3.74873">
        <ele>662.40002441406</ele>
        <time>2012-01-28T08:39:47Z</time>
      </trkpt>
      <trkpt lat="45.37975" lon="3.74867">
        <ele>659.79998779297</ele>
        <time>2012-01-28T08:39:54Z</time>
      </trkpt>
      <trkpt lat="45.3798" lon="3.74865">
        <ele>661.29998779297</ele>
        <time>2012-01-28T08:39:56Z</time>
      </trkpt>
      <trkpt lat="45.37985" lon="3.74864">
        <ele>660.79998779297</ele>
        <time>2012-01-28T08:39:58Z</time>
      </trkpt>
      <trkpt lat="45.37996" lon="3.7486">
        <ele>658.59997558594</ele>
        <time>2012-01-28T08:40:03Z</time>
      </trkpt>
      <trkpt lat="45.38002" lon="3.74858">
        <ele>655.90002441406</ele>
        <time>2012-01-28T08:40:06Z</time>
      </trkpt>
      <trkpt lat="45.38008" lon="3.74858">
        <ele>656.59997558594</ele>
        <time>2012-01-28T08:40:08Z</time>
      </trkpt>
      <trkpt lat="45.38013" lon="3.74856">
        <ele>656.79998779297</ele>
        <time>2012-01-28T08:40:10Z</time>
      </trkpt>
      <trkpt lat="45.38019" lon="3.74854">
        <ele>657.70001220703</ele>
        <time>2012-01-28T08:40:12Z</time>
      </trkpt>
      <trkpt lat="45.38024" lon="3.74853">
        <ele>658</ele>
        <time>2012-01-28T08:40:14Z</time>
      </trkpt>
      <trkpt lat="45.38031" lon="3.74852">
        <ele>658.20001220703</ele>
        <time>2012-01-28T08:40:17Z</time>
      </trkpt>
      <trkpt lat="45.38036" lon="3.74852">
        <ele>657.29998779297</ele>
        <time>2012-01-28T08:40:19Z</time>
      </trkpt>
      <trkpt lat="45.38041" lon="3.74853">
        <ele>657</ele>
        <time>2012-01-28T08:40:21Z</time>
      </trkpt>
      <trkpt lat="45.38046" lon="3.74853">
        <ele>657.29998779297</ele>
        <time>2012-01-28T08:40:23Z</time>
      </trkpt>
      <trkpt lat="45.38052" lon="3.74852">
        <ele>656.90002441406</ele>
        <time>2012-01-28T08:40:25Z</time>
      </trkpt>
      <trkpt lat="45.38057" lon="3.7485">
        <ele>656.79998779297</ele>
        <time>2012-01-28T08:40:27Z</time>
      </trkpt>
      <trkpt lat="45.38061" lon="3.74846">
        <ele>656.59997558594</ele>
        <time>2012-01-28T08:40:29Z</time>
      </trkpt>
      <trkpt lat="45.38063" lon="3.7484">
        <ele>656.29998779297</ele>
        <time>2012-01-28T08:40:31Z</time>
      </trkpt>
      <trkpt lat="45.38075" lon="3.74825">
        <ele>655.5</ele>
        <time>2012-01-28T08:40:37Z</time>
      </trkpt>
      <trkpt lat="45.38078" lon="3.74819">
        <ele>655.40002441406</ele>
        <time>2012-01-28T08:40:39Z</time>
      </trkpt>
      <trkpt lat="45.38082" lon="3.74815">
        <ele>656</ele>
        <time>2012-01-28T08:40:41Z</time>
      </trkpt>
      <trkpt lat="45.38085" lon="3.7481">
        <ele>655.09997558594</ele>
        <time>2012-01-28T08:40:43Z</time>
      </trkpt>
      <trkpt lat="45.38088" lon="3.74802">
        <ele>654.20001220703</ele>
        <time>2012-01-28T08:40:46Z</time>
      </trkpt>
      <trkpt lat="45.38085" lon="3.74793">
        <ele>655.20001220703</ele>
        <time>2012-01-28T08:40:48Z</time>
      </trkpt>
      <trkpt lat="45.38082" lon="3.74785">
        <ele>656.70001220703</ele>
        <time>2012-01-28T08:40:50Z</time>
      </trkpt>
      <trkpt lat="45.38078" lon="3.74781">
        <ele>656.59997558594</ele>
        <time>2012-01-28T08:40:52Z</time>
      </trkpt>
      <trkpt lat="45.38072" lon="3.74775">
        <ele>656.59997558594</ele>
        <time>2012-01-28T08:40:55Z</time>
      </trkpt>
      <trkpt lat="45.38063" lon="3.74768">
        <ele>655.5</ele>
        <time>2012-01-28T08:41:00Z</time>
      </trkpt>
      <trkpt lat="45.38059" lon="3.74764">
        <ele>653.29998779297</ele>
        <time>2012-01-28T08:41:02Z</time>
      </trkpt>
      <trkpt lat="45.38054" lon="3.74762">
        <ele>652.70001220703</ele>
        <time>2012-01-28T08:41:04Z</time>
      </trkpt>
      <trkpt lat="45.3805" lon="3.74758">
        <ele>652.90002441406</ele>
        <time>2012-01-28T08:41:06Z</time>
      </trkpt>
      <trkpt lat="45.38046" lon="3.74754">
        <ele>652.29998779297</ele>
        <time>2012-01-28T08:41:09Z</time>
      </trkpt>
      <trkpt lat="45.38042" lon="3.74749">
        <ele>653.79998779297</ele>
        <time>2012-01-28T08:41:11Z</time>
      </trkpt>
      <trkpt lat="45.38038" lon="3.74744">
        <ele>653.5</ele>
        <time>2012-01-28T08:41:13Z</time>
      </trkpt>
      <trkpt lat="45.38033" lon="3.74741">
        <ele>651.70001220703</ele>
        <time>2012-01-28T08:41:17Z</time>
      </trkpt>
      <trkpt lat="45.38029" lon="3.74736">
        <ele>653</ele>
        <time>2012-01-28T08:41:19Z</time>
      </trkpt>
      <trkpt lat="45.38024" lon="3.7473">
        <ele>653.20001220703</ele>
        <time>2012-01-28T08:41:22Z</time>
      </trkpt>
      <trkpt lat="45.3802" lon="3.74726">
        <ele>652.40002441406</ele>
        <time>2012-01-28T08:41:24Z</time>
      </trkpt>
      <trkpt lat="45.3801" lon="3.74713">
        <ele>653.5</ele>
        <time>2012-01-28T08:41:30Z</time>
      </trkpt>
      <trkpt lat="45.38007" lon="3.74708">
        <ele>653.59997558594</ele>
        <time>2012-01-28T08:41:32Z</time>
      </trkpt>
      <trkpt lat="45.38003" lon="3.74702">
        <ele>653.79998779297</ele>
        <time>2012-01-28T08:41:35Z</time>
      </trkpt>
      <trkpt lat="45.37999" lon="3.74696">
        <ele>653.90002441406</ele>
        <time>2012-01-28T08:41:37Z</time>
      </trkpt>
      <trkpt lat="45.37997" lon="3.7469">
        <ele>654.40002441406</ele>
        <time>2012-01-28T08:41:40Z</time>
      </trkpt>
      <trkpt lat="45.37994" lon="3.74684">
        <ele>654.59997558594</ele>
        <time>2012-01-28T08:41:41Z</time>
      </trkpt>
      <trkpt lat="45.37992" lon="3.74678">
        <ele>655.09997558594</ele>
        <time>2012-01-28T08:41:43Z</time>
      </trkpt>
      <trkpt lat="45.37989" lon="3.74671">
        <ele>653.29998779297</ele>
        <time>2012-01-28T08:41:46Z</time>
      </trkpt>
      <trkpt lat="45.37986" lon="3.74666">
        <ele>653.20001220703</ele>
        <time>2012-01-28T08:41:48Z</time>
      </trkpt>
      <trkpt lat="45.37983" lon="3.74661">
        <ele>653.79998779297</ele>
        <time>2012-01-28T08:41:50Z</time>
      </trkpt>
      <trkpt lat="45.37981" lon="3.74655">
        <ele>655.09997558594</ele>
        <time>2012-01-28T08:41:52Z</time>
      </trkpt>
      <trkpt lat="45.37977" lon="3.74647">
        <ele>653.20001220703</ele>
        <time>2012-01-28T08:41:55Z</time>
      </trkpt>
      <trkpt lat="45.37975" lon="3.74641">
        <ele>652.70001220703</ele>
        <time>2012-01-28T08:41:57Z</time>
      </trkpt>
      <trkpt lat="45.37968" lon="3.74635">
        <ele>654.20001220703</ele>
        <time>2012-01-28T08:42:00Z</time>
      </trkpt>
      <trkpt lat="45.37963" lon="3.7463">
        <ele>655.09997558594</ele>
        <time>2012-01-28T08:42:02Z</time>
      </trkpt>
      <trkpt lat="45.37959" lon="3.74625">
        <ele>656.90002441406</ele>
        <time>2012-01-28T08:42:04Z</time>
      </trkpt>
      <trkpt lat="45.37956" lon="3.7462">
        <ele>657.79998779297</ele>
        <time>2012-01-28T08:42:06Z</time>
      </trkpt>
      <trkpt lat="45.3795" lon="3.74614">
        <ele>662.79998779297</ele>
        <time>2012-01-28T08:42:08Z</time>
      </trkpt>
      <trkpt lat="45.37946" lon="3.74608">
        <ele>665.20001220703</ele>
        <time>2012-01-28T08:42:10Z</time>
      </trkpt>
      <trkpt lat="45.37942" lon="3.74604">
        <ele>662</ele>
        <time>2012-01-28T08:42:13Z</time>
      </trkpt>
      <trkpt lat="45.37937" lon="3.746">
        <ele>660.70001220703</ele>
        <time>2012-01-28T08:42:16Z</time>
      </trkpt>
      <trkpt lat="45.37928" lon="3.74588">
        <ele>660.59997558594</ele>
        <time>2012-01-28T08:42:23Z</time>
      </trkpt>
      <trkpt lat="45.37924" lon="3.74585">
        <ele>661.90002441406</ele>
        <time>2012-01-28T08:42:25Z</time>
      </trkpt>
      <trkpt lat="45.37921" lon="3.7458">
        <ele>662.5</ele>
        <time>2012-01-28T08:42:27Z</time>
      </trkpt>
      <trkpt lat="45.37917" lon="3.74575">
        <ele>663</ele>
        <time>2012-01-28T08:42:29Z</time>
      </trkpt>
      <trkpt lat="45.37914" lon="3.7457">
        <ele>663</ele>
        <time>2012-01-28T08:42:31Z</time>
      </trkpt>
      <trkpt lat="45.3791" lon="3.74564">
        <ele>662</ele>
        <time>2012-01-28T08:42:34Z</time>
      </trkpt>
      <trkpt lat="45.37907" lon="3.74559">
        <ele>663.5</ele>
        <time>2012-01-28T08:42:36Z</time>
      </trkpt>
      <trkpt lat="45.37903" lon="3.74554">
        <ele>663</ele>
        <time>2012-01-28T08:42:38Z</time>
      </trkpt>
      <trkpt lat="45.379" lon="3.74549">
        <ele>663.20001220703</ele>
        <time>2012-01-28T08:42:40Z</time>
      </trkpt>
      <trkpt lat="45.37894" lon="3.74536">
        <ele>662</ele>
        <time>2012-01-28T08:42:45Z</time>
      </trkpt>
      <trkpt lat="45.3789" lon="3.74532">
        <ele>662.70001220703</ele>
        <time>2012-01-28T08:42:47Z</time>
      </trkpt>
      <trkpt lat="45.37887" lon="3.74524">
        <ele>661.59997558594</ele>
        <time>2012-01-28T08:42:50Z</time>
      </trkpt>
      <trkpt lat="45.37883" lon="3.74518">
        <ele>663.09997558594</ele>
        <time>2012-01-28T08:42:52Z</time>
      </trkpt>
      <trkpt lat="45.3788" lon="3.74513">
        <ele>664.09997558594</ele>
        <time>2012-01-28T08:42:54Z</time>
      </trkpt>
      <trkpt lat="45.37874" lon="3.74503">
        <ele>662.90002441406</ele>
        <time>2012-01-28T08:42:59Z</time>
      </trkpt>
      <trkpt lat="45.37871" lon="3.74497">
        <ele>664.09997558594</ele>
        <time>2012-01-28T08:43:01Z</time>
      </trkpt>
      <trkpt lat="45.37868" lon="3.7449">
        <ele>665.09997558594</ele>
        <time>2012-01-28T08:43:03Z</time>
      </trkpt>
      <trkpt lat="45.37855" lon="3.7447">
        <ele>663.70001220703</ele>
        <time>2012-01-28T08:43:11Z</time>
      </trkpt>
      <trkpt lat="45.3785" lon="3.74462">
        <ele>661.79998779297</ele>
        <time>2012-01-28T08:43:13Z</time>
      </trkpt>
      <trkpt lat="45.37842" lon="3.74443">
        <ele>656.70001220703</ele>
        <time>2012-01-28T08:43:23Z</time>
      </trkpt>
      <trkpt lat="45.37844" lon="3.74435">
        <ele>655.09997558594</ele>
        <time>2012-01-28T08:43:26Z</time>
      </trkpt>
      <trkpt lat="45.37842" lon="3.74422">
        <ele>657.29998779297</ele>
        <time>2012-01-28T08:43:31Z</time>
      </trkpt>
      <trkpt lat="45.3784" lon="3.74416">
        <ele>658.91351318359</ele>
        <time>2012-01-28T08:43:32Z</time>
      </trkpt>
      <trkpt lat="45.3784" lon="3.74403">
        <ele>661.09997558594</ele>
        <time>2012-01-28T08:43:36Z</time>
      </trkpt>
      <trkpt lat="45.37839" lon="3.74394">
        <ele>663.70001220703</ele>
        <time>2012-01-28T08:43:39Z</time>
      </trkpt>
      <trkpt lat="45.37812" lon="3.74271">
        <ele>666.70001220703</ele>
        <time>2012-01-28T08:44:18Z</time>
      </trkpt>
      <trkpt lat="45.37807" lon="3.74265">
        <ele>666.40002441406</ele>
        <time>2012-01-28T08:44:20Z</time>
      </trkpt>
      <trkpt lat="45.37805" lon="3.74256">
        <ele>666.79998779297</ele>
        <time>2012-01-28T08:44:23Z</time>
      </trkpt>
      <trkpt lat="45.37804" lon="3.74247">
        <ele>671.29998779297</ele>
        <time>2012-01-28T08:44:26Z</time>
      </trkpt>
      <trkpt lat="45.37803" lon="3.74239">
        <ele>669</ele>
        <time>2012-01-28T08:44:29Z</time>
      </trkpt>
      <trkpt lat="45.37799" lon="3.74233">
        <ele>670.5</ele>
        <time>2012-01-28T08:44:30Z</time>
      </trkpt>
      <trkpt lat="45.37797" lon="3.74225">
        <ele>668.70001220703</ele>
        <time>2012-01-28T08:44:33Z</time>
      </trkpt>
      <trkpt lat="45.378" lon="3.74217">
        <ele>671</ele>
        <time>2012-01-28T08:44:37Z</time>
      </trkpt>
      <trkpt lat="45.37796" lon="3.74208">
        <ele>670.29998779297</ele>
        <time>2012-01-28T08:44:42Z</time>
      </trkpt>
      <trkpt lat="45.37796" lon="3.74202">
        <ele>670</ele>
        <time>2012-01-28T08:44:43Z</time>
      </trkpt>
      <trkpt lat="45.37796" lon="3.74193">
        <ele>669.20001220703</ele>
        <time>2012-01-28T08:44:45Z</time>
      </trkpt>
      <trkpt lat="45.37793" lon="3.74185">
        <ele>668</ele>
        <time>2012-01-28T08:44:48Z</time>
      </trkpt>
      <trkpt lat="45.3779" lon="3.74179">
        <ele>669.79998779297</ele>
        <time>2012-01-28T08:44:51Z</time>
      </trkpt>
      <trkpt lat="45.37787" lon="3.74172">
        <ele>671.5</ele>
        <time>2012-01-28T08:44:53Z</time>
      </trkpt>
      <trkpt lat="45.37784" lon="3.74164">
        <ele>673</ele>
        <time>2012-01-28T08:44:56Z</time>
      </trkpt>
      <trkpt lat="45.37783" lon="3.74156">
        <ele>673.29998779297</ele>
        <time>2012-01-28T08:44:58Z</time>
      </trkpt>
      <trkpt lat="45.37779" lon="3.74144">
        <ele>671.59997558594</ele>
        <time>2012-01-28T08:45:03Z</time>
      </trkpt>
      <trkpt lat="45.37776" lon="3.74129">
        <ele>671.09997558594</ele>
        <time>2012-01-28T08:45:09Z</time>
      </trkpt>
      <trkpt lat="45.37775" lon="3.74121">
        <ele>671.40002441406</ele>
        <time>2012-01-28T08:45:11Z</time>
      </trkpt>
      <trkpt lat="45.37771" lon="3.74113">
        <ele>671.90002441406</ele>
        <time>2012-01-28T08:45:13Z</time>
      </trkpt>
      <trkpt lat="45.37768" lon="3.74097">
        <ele>669.59997558594</ele>
        <time>2012-01-28T08:45:16Z</time>
      </trkpt>
      <trkpt lat="45.37766" lon="3.74086">
        <ele>670.70001220703</ele>
        <time>2012-01-28T08:45:21Z</time>
      </trkpt>
      <trkpt lat="45.37766" lon="3.74079">
        <ele>671</ele>
        <time>2012-01-28T08:45:24Z</time>
      </trkpt>
      <trkpt lat="45.37764" lon="3.74073">
        <ele>671.5</ele>
        <time>2012-01-28T08:45:26Z</time>
      </trkpt>
      <trkpt lat="45.37761" lon="3.74067">
        <ele>671.20001220703</ele>
        <time>2012-01-28T08:45:30Z</time>
      </trkpt>
      <trkpt lat="45.3776" lon="3.74058">
        <ele>672.5</ele>
        <time>2012-01-28T08:45:34Z</time>
      </trkpt>
      <trkpt lat="45.37751" lon="3.74035">
        <ele>670.29998779297</ele>
        <time>2012-01-28T08:45:44Z</time>
      </trkpt>
      <trkpt lat="45.37745" lon="3.74031">
        <ele>669.90002441406</ele>
        <time>2012-01-28T08:45:48Z</time>
      </trkpt>
      <trkpt lat="45.3774" lon="3.74024">
        <ele>670</ele>
        <time>2012-01-28T08:45:49Z</time>
      </trkpt>
      <trkpt lat="45.37734" lon="3.74019">
        <ele>670.09997558594</ele>
        <time>2012-01-28T08:45:51Z</time>
      </trkpt>
      <trkpt lat="45.37731" lon="3.74013">
        <ele>669.5</ele>
        <time>2012-01-28T08:45:53Z</time>
      </trkpt>
      <trkpt lat="45.37727" lon="3.74005">
        <ele>669.79998779297</ele>
        <time>2012-01-28T08:45:55Z</time>
      </trkpt>
      <trkpt lat="45.37724" lon="3.73997">
        <ele>668.5</ele>
        <time>2012-01-28T08:45:59Z</time>
      </trkpt>
      <trkpt lat="45.37717" lon="3.73981">
        <ele>670.70001220703</ele>
        <time>2012-01-28T08:46:05Z</time>
      </trkpt>
      <trkpt lat="45.3772" lon="3.73975">
        <ele>669.40002441406</ele>
        <time>2012-01-28T08:46:09Z</time>
      </trkpt>
      <trkpt lat="45.37715" lon="3.73965">
        <ele>668.79998779297</ele>
        <time>2012-01-28T08:46:12Z</time>
      </trkpt>
      <trkpt lat="45.3771" lon="3.73954">
        <ele>666.09997558594</ele>
        <time>2012-01-28T08:46:16Z</time>
      </trkpt>
      <trkpt lat="45.37705" lon="3.73944">
        <ele>667.59997558594</ele>
        <time>2012-01-28T08:46:19Z</time>
      </trkpt>
      <trkpt lat="45.37702" lon="3.73936">
        <ele>668</ele>
        <time>2012-01-28T08:46:22Z</time>
      </trkpt>
      <trkpt lat="45.37694" lon="3.73923">
        <ele>665.59997558594</ele>
        <time>2012-01-28T08:46:27Z</time>
      </trkpt>
      <trkpt lat="45.37686" lon="3.73905">
        <ele>662.14813232422</ele>
        <time>2012-01-28T08:46:29Z</time>
      </trkpt>
      <trkpt lat="45.37683" lon="3.73891">
        <ele>662</ele>
        <time>2012-01-28T08:46:35Z</time>
      </trkpt>
      <trkpt lat="45.37679" lon="3.73886">
        <ele>661.90002441406</ele>
        <time>2012-01-28T08:46:37Z</time>
      </trkpt>
      <trkpt lat="45.37678" lon="3.7388">
        <ele>662.79998779297</ele>
        <time>2012-01-28T08:46:38Z</time>
      </trkpt>
      <trkpt lat="45.37673" lon="3.73871">
        <ele>662.90002441406</ele>
        <time>2012-01-28T08:46:46Z</time>
      </trkpt>
      <trkpt lat="45.3767" lon="3.73863">
        <ele>664.09997558594</ele>
        <time>2012-01-28T08:46:48Z</time>
      </trkpt>
      <trkpt lat="45.37673" lon="3.73854">
        <ele>665.40002441406</ele>
        <time>2012-01-28T08:46:51Z</time>
      </trkpt>
      <trkpt lat="45.37674" lon="3.73842">
        <ele>669.70001220703</ele>
        <time>2012-01-28T08:46:55Z</time>
      </trkpt>
      <trkpt lat="45.37673" lon="3.73835">
        <ele>671.20001220703</ele>
        <time>2012-01-28T08:46:58Z</time>
      </trkpt>
      <trkpt lat="45.37669" lon="3.7383">
        <ele>672.59997558594</ele>
        <time>2012-01-28T08:47:01Z</time>
      </trkpt>
      <trkpt lat="45.37666" lon="3.73823">
        <ele>673.20001220703</ele>
        <time>2012-01-28T08:47:04Z</time>
      </trkpt>
      <trkpt lat="45.37651" lon="3.73811">
        <ele>674.90002441406</ele>
        <time>2012-01-28T08:47:08Z</time>
      </trkpt>
      <trkpt lat="45.37647" lon="3.73807">
        <ele>675.20001220703</ele>
        <time>2012-01-28T08:47:11Z</time>
      </trkpt>
      <trkpt lat="45.37641" lon="3.73804">
        <ele>674.59997558594</ele>
        <time>2012-01-28T08:47:13Z</time>
      </trkpt>
      <trkpt lat="45.37634" lon="3.73797">
        <ele>674.69885253906</ele>
        <time>2012-01-28T08:47:14Z</time>
      </trkpt>
      <trkpt lat="45.3763" lon="3.73794">
        <ele>674.20001220703</ele>
        <time>2012-01-28T08:47:15Z</time>
      </trkpt>
      <trkpt lat="45.37624" lon="3.73793">
        <ele>674.09997558594</ele>
        <time>2012-01-28T08:47:16Z</time>
      </trkpt>
      <trkpt lat="45.37618" lon="3.73787">
        <ele>673.29998779297</ele>
        <time>2012-01-28T08:47:17Z</time>
      </trkpt>
      <trkpt lat="45.37612" lon="3.73777">
        <ele>670</ele>
        <time>2012-01-28T08:47:21Z</time>
      </trkpt>
      <trkpt lat="45.37606" lon="3.73767">
        <ele>674.29998779297</ele>
        <time>2012-01-28T08:47:25Z</time>
      </trkpt>
      <trkpt lat="45.37604" lon="3.7376">
        <ele>675.5</ele>
        <time>2012-01-28T08:47:28Z</time>
      </trkpt>
      <trkpt lat="45.37602" lon="3.73754">
        <ele>676.09997558594</ele>
        <time>2012-01-28T08:47:30Z</time>
      </trkpt>
      <trkpt lat="45.37598" lon="3.73749">
        <ele>674.40002441406</ele>
        <time>2012-01-28T08:47:33Z</time>
      </trkpt>
      <trkpt lat="45.37599" lon="3.73733">
        <ele>672</ele>
        <time>2012-01-28T08:47:37Z</time>
      </trkpt>
      <trkpt lat="45.37597" lon="3.73727">
        <ele>661.79998779297</ele>
        <time>2012-01-28T08:47:42Z</time>
      </trkpt>
      <trkpt lat="45.3759" lon="3.73724">
        <ele>655.70001220703</ele>
        <time>2012-01-28T08:47:46Z</time>
      </trkpt>
      <trkpt lat="45.37585" lon="3.73709">
        <ele>654.90002441406</ele>
        <time>2012-01-28T08:47:53Z</time>
      </trkpt>
      <trkpt lat="45.37574" lon="3.73695">
        <ele>648.79998779297</ele>
        <time>2012-01-28T08:47:59Z</time>
      </trkpt>
      <trkpt lat="45.37568" lon="3.73681">
        <ele>647</ele>
        <time>2012-01-28T08:48:04Z</time>
      </trkpt>
      <trkpt lat="45.37561" lon="3.73661">
        <ele>649.40002441406</ele>
        <time>2012-01-28T08:48:09Z</time>
      </trkpt>
      <trkpt lat="45.3756" lon="3.73652">
        <ele>650.90002441406</ele>
        <time>2012-01-28T08:48:11Z</time>
      </trkpt>
      <trkpt lat="45.37556" lon="3.73638">
        <ele>659.79998779297</ele>
        <time>2012-01-28T08:48:16Z</time>
      </trkpt>
      <trkpt lat="45.3755" lon="3.73632">
        <ele>661.5</ele>
        <time>2012-01-28T08:48:19Z</time>
      </trkpt>
      <trkpt lat="45.37546" lon="3.73627">
        <ele>661.5</ele>
        <time>2012-01-28T08:48:21Z</time>
      </trkpt>
      <trkpt lat="45.37543" lon="3.73622">
        <ele>660.09997558594</ele>
        <time>2012-01-28T08:48:23Z</time>
      </trkpt>
      <trkpt lat="45.37539" lon="3.73616">
        <ele>657.59997558594</ele>
        <time>2012-01-28T08:48:26Z</time>
      </trkpt>
      <trkpt lat="45.37537" lon="3.73594">
        <ele>656.70001220703</ele>
        <time>2012-01-28T08:48:32Z</time>
      </trkpt>
      <trkpt lat="45.37533" lon="3.73588">
        <ele>655.20001220703</ele>
        <time>2012-01-28T08:48:34Z</time>
      </trkpt>
      <trkpt lat="45.37532" lon="3.73579">
        <ele>658.59997558594</ele>
        <time>2012-01-28T08:48:37Z</time>
      </trkpt>
      <trkpt lat="45.37531" lon="3.73565">
        <ele>657.79998779297</ele>
        <time>2012-01-28T08:48:41Z</time>
      </trkpt>
      <trkpt lat="45.37532" lon="3.73557">
        <ele>656.09997558594</ele>
        <time>2012-01-28T08:48:44Z</time>
      </trkpt>
      <trkpt lat="45.37534" lon="3.73548">
        <ele>655.90002441406</ele>
        <time>2012-01-28T08:48:47Z</time>
      </trkpt>
      <trkpt lat="45.37525" lon="3.73542">
        <ele>654.09997558594</ele>
        <time>2012-01-28T08:48:49Z</time>
      </trkpt>
      <trkpt lat="45.37524" lon="3.73527">
        <ele>655.5</ele>
        <time>2012-01-28T08:48:53Z</time>
      </trkpt>
      <trkpt lat="45.3752" lon="3.73508">
        <ele>657.20001220703</ele>
        <time>2012-01-28T08:48:58Z</time>
      </trkpt>
      <trkpt lat="45.37522" lon="3.73499">
        <ele>656.90002441406</ele>
        <time>2012-01-28T08:49:00Z</time>
      </trkpt>
      <trkpt lat="45.37526" lon="3.73487">
        <ele>655.40002441406</ele>
        <time>2012-01-28T08:49:03Z</time>
      </trkpt>
      <trkpt lat="45.37529" lon="3.7348">
        <ele>656.59997558594</ele>
        <time>2012-01-28T08:49:05Z</time>
      </trkpt>
      <trkpt lat="45.37529" lon="3.73473">
        <ele>654.5</ele>
        <time>2012-01-28T08:49:07Z</time>
      </trkpt>
      <trkpt lat="45.3753" lon="3.73464">
        <ele>654.5</ele>
        <time>2012-01-28T08:49:11Z</time>
      </trkpt>
      <trkpt lat="45.37529" lon="3.73457">
        <ele>654.20001220703</ele>
        <time>2012-01-28T08:49:13Z</time>
      </trkpt>
      <trkpt lat="45.37529" lon="3.73449">
        <ele>654</ele>
        <time>2012-01-28T08:49:15Z</time>
      </trkpt>
      <trkpt lat="45.37527" lon="3.73441">
        <ele>650.20001220703</ele>
        <time>2012-01-28T08:49:18Z</time>
      </trkpt>
      <trkpt lat="45.37525" lon="3.73428">
        <ele>645.90002441406</ele>
        <time>2012-01-28T08:49:24Z</time>
      </trkpt>
      <trkpt lat="45.37521" lon="3.73419">
        <ele>645.29998779297</ele>
        <time>2012-01-28T08:49:27Z</time>
      </trkpt>
      <trkpt lat="45.37518" lon="3.7341">
        <ele>646.79998779297</ele>
        <time>2012-01-28T08:49:29Z</time>
      </trkpt>
      <trkpt lat="45.37514" lon="3.734">
        <ele>646</ele>
        <time>2012-01-28T08:49:32Z</time>
      </trkpt>
      <trkpt lat="45.37508" lon="3.73393">
        <ele>648.20001220703</ele>
        <time>2012-01-28T08:49:34Z</time>
      </trkpt>
      <trkpt lat="45.37506" lon="3.73383">
        <ele>650.09997558594</ele>
        <time>2012-01-28T08:49:37Z</time>
      </trkpt>
      <trkpt lat="45.37503" lon="3.73377">
        <ele>651</ele>
        <time>2012-01-28T08:49:39Z</time>
      </trkpt>
      <trkpt lat="45.37499" lon="3.73373">
        <ele>650.70001220703</ele>
        <time>2012-01-28T08:49:41Z</time>
      </trkpt>
      <trkpt lat="45.37474" lon="3.73343">
        <ele>663.40002441406</ele>
        <time>2012-01-28T08:49:57Z</time>
      </trkpt>
      <trkpt lat="45.37469" lon="3.73334">
        <ele>662.90002441406</ele>
        <time>2012-01-28T08:50:00Z</time>
      </trkpt>
      <trkpt lat="45.37465" lon="3.73329">
        <ele>660.59997558594</ele>
        <time>2012-01-28T08:50:03Z</time>
      </trkpt>
      <trkpt lat="45.37453" lon="3.73316">
        <ele>666.5</ele>
        <time>2012-01-28T08:50:09Z</time>
      </trkpt>
      <trkpt lat="45.37442" lon="3.7331">
        <ele>667.20001220703</ele>
        <time>2012-01-28T08:50:12Z</time>
      </trkpt>
      <trkpt lat="45.37438" lon="3.73306">
        <ele>669.29998779297</ele>
        <time>2012-01-28T08:50:14Z</time>
      </trkpt>
      <trkpt lat="45.37434" lon="3.73303">
        <ele>670</ele>
        <time>2012-01-28T08:50:17Z</time>
      </trkpt>
      <trkpt lat="45.37426" lon="3.73293">
        <ele>672.5</ele>
        <time>2012-01-28T08:50:24Z</time>
      </trkpt>
      <trkpt lat="45.37419" lon="3.73289">
        <ele>670.09997558594</ele>
        <time>2012-01-28T08:50:28Z</time>
      </trkpt>
      <trkpt lat="45.37415" lon="3.73283">
        <ele>670.20001220703</ele>
        <time>2012-01-28T08:50:32Z</time>
      </trkpt>
      <trkpt lat="45.37411" lon="3.7327">
        <ele>669.40002441406</ele>
        <time>2012-01-28T08:50:35Z</time>
      </trkpt>
      <trkpt lat="45.37406" lon="3.73266">
        <ele>671</ele>
        <time>2012-01-28T08:50:38Z</time>
      </trkpt>
      <trkpt lat="45.37403" lon="3.73261">
        <ele>667.09997558594</ele>
        <time>2012-01-28T08:50:45Z</time>
      </trkpt>
      <trkpt lat="45.37394" lon="3.73244">
        <ele>670.20001220703</ele>
        <time>2012-01-28T08:50:48Z</time>
      </trkpt>
      <trkpt lat="45.37388" lon="3.73239">
        <ele>672.29998779297</ele>
        <time>2012-01-28T08:50:50Z</time>
      </trkpt>
      <trkpt lat="45.37383" lon="3.73234">
        <ele>672.29998779297</ele>
        <time>2012-01-28T08:50:52Z</time>
      </trkpt>
      <trkpt lat="45.37378" lon="3.73228">
        <ele>673.29998779297</ele>
        <time>2012-01-28T08:50:54Z</time>
      </trkpt>
      <trkpt lat="45.3738" lon="3.73209">
        <ele>673.59997558594</ele>
        <time>2012-01-28T08:51:01Z</time>
      </trkpt>
      <trkpt lat="45.37383" lon="3.73202">
        <ele>673.59997558594</ele>
        <time>2012-01-28T08:51:03Z</time>
      </trkpt>
      <trkpt lat="45.37383" lon="3.73196">
        <ele>673.70001220703</ele>
        <time>2012-01-28T08:51:05Z</time>
      </trkpt>
      <trkpt lat="45.37383" lon="3.73189">
        <ele>673.40002441406</ele>
        <time>2012-01-28T08:51:07Z</time>
      </trkpt>
      <trkpt lat="45.37386" lon="3.73178">
        <ele>674.59997558594</ele>
        <time>2012-01-28T08:51:11Z</time>
      </trkpt>
      <trkpt lat="45.37387" lon="3.73167">
        <ele>675</ele>
        <time>2012-01-28T08:51:13Z</time>
      </trkpt>
      <trkpt lat="45.37383" lon="3.73161">
        <ele>675.5</ele>
        <time>2012-01-28T08:51:14Z</time>
      </trkpt>
      <trkpt lat="45.37385" lon="3.73145">
        <ele>676.40002441406</ele>
        <time>2012-01-28T08:51:19Z</time>
      </trkpt>
      <trkpt lat="45.37382" lon="3.7313">
        <ele>675.59997558594</ele>
        <time>2012-01-28T08:51:24Z</time>
      </trkpt>
      <trkpt lat="45.37384" lon="3.73122">
        <ele>676.5</ele>
        <time>2012-01-28T08:51:26Z</time>
      </trkpt>
      <trkpt lat="45.37389" lon="3.73114">
        <ele>674.59997558594</ele>
        <time>2012-01-28T08:51:29Z</time>
      </trkpt>
      <trkpt lat="45.37389" lon="3.73107">
        <ele>673.90002441406</ele>
        <time>2012-01-28T08:51:32Z</time>
      </trkpt>
      <trkpt lat="45.37392" lon="3.73102">
        <ele>674.40002441406</ele>
        <time>2012-01-28T08:51:33Z</time>
      </trkpt>
      <trkpt lat="45.37384" lon="3.73096">
        <ele>673.29998779297</ele>
        <time>2012-01-28T08:51:37Z</time>
      </trkpt>
      <trkpt lat="45.37367" lon="3.73068">
        <ele>672.90002441406</ele>
        <time>2012-01-28T08:51:46Z</time>
      </trkpt>
      <trkpt lat="45.37357" lon="3.73061">
        <ele>670.59997558594</ele>
        <time>2012-01-28T08:51:53Z</time>
      </trkpt>
      <trkpt lat="45.3735" lon="3.73048">
        <ele>671.59997558594</ele>
        <time>2012-01-28T08:52:00Z</time>
      </trkpt>
      <trkpt lat="45.37345" lon="3.73041">
        <ele>672.59997558594</ele>
        <time>2012-01-28T08:52:03Z</time>
      </trkpt>
      <trkpt lat="45.37339" lon="3.73021">
        <ele>671.40002441406</ele>
        <time>2012-01-28T08:52:08Z</time>
      </trkpt>
      <trkpt lat="45.37326" lon="3.73013">
        <ele>670.70001220703</ele>
        <time>2012-01-28T08:52:12Z</time>
      </trkpt>
      <trkpt lat="45.37321" lon="3.73013">
        <ele>672</ele>
        <time>2012-01-28T08:52:15Z</time>
      </trkpt>
      <trkpt lat="45.37317" lon="3.73008">
        <ele>672.09997558594</ele>
        <time>2012-01-28T08:52:17Z</time>
      </trkpt>
      <trkpt lat="45.37295" lon="3.72981">
        <ele>672.59997558594</ele>
        <time>2012-01-28T08:52:31Z</time>
      </trkpt>
      <trkpt lat="45.37272" lon="3.72963">
        <ele>675.5</ele>
        <time>2012-01-28T08:52:38Z</time>
      </trkpt>
      <trkpt lat="45.37259" lon="3.72959">
        <ele>677.5</ele>
        <time>2012-01-28T08:52:43Z</time>
      </trkpt>
      <trkpt lat="45.37255" lon="3.72956">
        <ele>677.59997558594</ele>
        <time>2012-01-28T08:52:45Z</time>
      </trkpt>
      <trkpt lat="45.37244" lon="3.72939">
        <ele>669.20001220703</ele>
        <time>2012-01-28T08:52:54Z</time>
      </trkpt>
      <trkpt lat="45.3724" lon="3.72934">
        <ele>666.70001220703</ele>
        <time>2012-01-28T08:52:58Z</time>
      </trkpt>
      <trkpt lat="45.37234" lon="3.72917">
        <ele>670.29998779297</ele>
        <time>2012-01-28T08:53:04Z</time>
      </trkpt>
      <trkpt lat="45.37231" lon="3.72911">
        <ele>671.09997558594</ele>
        <time>2012-01-28T08:53:06Z</time>
      </trkpt>
      <trkpt lat="45.37231" lon="3.72902">
        <ele>670.90002441406</ele>
        <time>2012-01-28T08:53:09Z</time>
      </trkpt>
      <trkpt lat="45.37225" lon="3.7289">
        <ele>672</ele>
        <time>2012-01-28T08:53:13Z</time>
      </trkpt>
      <trkpt lat="45.37225" lon="3.72888">
        <ele>671.75909423828</ele>
        <time>2012-01-28T08:53:14Z</time>
      </trkpt>
      <trkpt lat="45.37219" lon="3.72879">
        <ele>671.20001220703</ele>
        <time>2012-01-28T08:53:17Z</time>
      </trkpt>
      <trkpt lat="45.37212" lon="3.72874">
        <ele>672.90002441406</ele>
        <time>2012-01-28T08:53:20Z</time>
      </trkpt>
      <trkpt lat="45.37206" lon="3.72871">
        <ele>674.09997558594</ele>
        <time>2012-01-28T08:53:22Z</time>
      </trkpt>
      <trkpt lat="45.37198" lon="3.72866">
        <ele>674.5</ele>
        <time>2012-01-28T08:53:24Z</time>
      </trkpt>
      <trkpt lat="45.37194" lon="3.7286">
        <ele>674.90002441406</ele>
        <time>2012-01-28T08:53:25Z</time>
      </trkpt>
      <trkpt lat="45.37188" lon="3.72856">
        <ele>674.70001220703</ele>
        <time>2012-01-28T08:53:27Z</time>
      </trkpt>
      <trkpt lat="45.37179" lon="3.72852">
        <ele>674.5</ele>
        <time>2012-01-28T08:53:30Z</time>
      </trkpt>
      <trkpt lat="45.37175" lon="3.72846">
        <ele>674.40002441406</ele>
        <time>2012-01-28T08:53:32Z</time>
      </trkpt>
      <trkpt lat="45.37168" lon="3.72842">
        <ele>677.20001220703</ele>
        <time>2012-01-28T08:53:36Z</time>
      </trkpt>
      <trkpt lat="45.37162" lon="3.72839">
        <ele>680.70001220703</ele>
        <time>2012-01-28T08:53:39Z</time>
      </trkpt>
      <trkpt lat="45.37157" lon="3.72841">
        <ele>682.70001220703</ele>
        <time>2012-01-28T08:53:42Z</time>
      </trkpt>
      <trkpt lat="45.37152" lon="3.72842">
        <ele>681.40002441406</ele>
        <time>2012-01-28T08:53:44Z</time>
      </trkpt>
      <trkpt lat="45.37145" lon="3.72839">
        <ele>671.20001220703</ele>
        <time>2012-01-28T08:53:49Z</time>
      </trkpt>
      <trkpt lat="45.37135" lon="3.72826">
        <ele>668.79998779297</ele>
        <time>2012-01-28T08:53:58Z</time>
      </trkpt>
      <trkpt lat="45.37131" lon="3.72824">
        <ele>670</ele>
        <time>2012-01-28T08:54:00Z</time>
      </trkpt>
      <trkpt lat="45.37126" lon="3.72817">
        <ele>671.59997558594</ele>
        <time>2012-01-28T08:54:04Z</time>
      </trkpt>
      <trkpt lat="45.37117" lon="3.72819">
        <ele>671.5</ele>
        <time>2012-01-28T08:54:07Z</time>
      </trkpt>
      <trkpt lat="45.37112" lon="3.72818">
        <ele>669.79998779297</ele>
        <time>2012-01-28T08:54:10Z</time>
      </trkpt>
      <trkpt lat="45.37103" lon="3.7282">
        <ele>668.5</ele>
        <time>2012-01-28T08:54:13Z</time>
      </trkpt>
      <trkpt lat="45.37098" lon="3.7282">
        <ele>669</ele>
        <time>2012-01-28T08:54:15Z</time>
      </trkpt>
      <trkpt lat="45.37087" lon="3.72818">
        <ele>669.90002441406</ele>
        <time>2012-01-28T08:54:19Z</time>
      </trkpt>
      <trkpt lat="45.37082" lon="3.72821">
        <ele>671.90002441406</ele>
        <time>2012-01-28T08:54:22Z</time>
      </trkpt>
      <trkpt lat="45.37077" lon="3.7282">
        <ele>677.70001220703</ele>
        <time>2012-01-28T08:54:25Z</time>
      </trkpt>
      <trkpt lat="45.37071" lon="3.72818">
        <ele>680</ele>
        <time>2012-01-28T08:54:28Z</time>
      </trkpt>
      <trkpt lat="45.37066" lon="3.72815">
        <ele>679</ele>
        <time>2012-01-28T08:54:34Z</time>
      </trkpt>
      <trkpt lat="45.3706" lon="3.72814">
        <ele>680</ele>
        <time>2012-01-28T08:54:37Z</time>
      </trkpt>
      <trkpt lat="45.37055" lon="3.72811">
        <ele>680.20001220703</ele>
        <time>2012-01-28T08:54:40Z</time>
      </trkpt>
      <trkpt lat="45.37049" lon="3.72811">
        <ele>679.79998779297</ele>
        <time>2012-01-28T08:54:43Z</time>
      </trkpt>
      <trkpt lat="45.37044" lon="3.72812">
        <ele>679.09997558594</ele>
        <time>2012-01-28T08:54:45Z</time>
      </trkpt>
      <trkpt lat="45.37034" lon="3.72819">
        <ele>680.70001220703</ele>
        <time>2012-01-28T08:54:52Z</time>
      </trkpt>
      <trkpt lat="45.3703" lon="3.72823">
        <ele>678.79998779297</ele>
        <time>2012-01-28T08:54:58Z</time>
      </trkpt>
      <trkpt lat="45.37025" lon="3.72824">
        <ele>679.90002441406</ele>
        <time>2012-01-28T08:55:01Z</time>
      </trkpt>
      <trkpt lat="45.3702" lon="3.72828">
        <ele>678.90002441406</ele>
        <time>2012-01-28T08:55:07Z</time>
      </trkpt>
      <trkpt lat="45.37014" lon="3.7283">
        <ele>677.40002441406</ele>
        <time>2012-01-28T08:55:13Z</time>
      </trkpt>
      <trkpt lat="45.37001" lon="3.72833">
        <ele>673.70001220703</ele>
        <time>2012-01-28T08:55:21Z</time>
      </trkpt>
      <trkpt lat="45.36947" lon="3.72837">
        <ele>680.5</ele>
        <time>2012-01-28T08:55:42Z</time>
      </trkpt>
      <trkpt lat="45.36945" lon="3.72845">
        <ele>678.90002441406</ele>
        <time>2012-01-28T08:55:45Z</time>
      </trkpt>
      <trkpt lat="45.3694" lon="3.72843">
        <ele>678.59997558594</ele>
        <time>2012-01-28T08:55:48Z</time>
      </trkpt>
      <trkpt lat="45.36932" lon="3.72844">
        <ele>683.29998779297</ele>
        <time>2012-01-28T08:55:51Z</time>
      </trkpt>
      <trkpt lat="45.36924" lon="3.72847">
        <ele>685.70001220703</ele>
        <time>2012-01-28T08:55:54Z</time>
      </trkpt>
      <trkpt lat="45.36916" lon="3.72851">
        <ele>684</ele>
        <time>2012-01-28T08:55:59Z</time>
      </trkpt>
      <trkpt lat="45.36912" lon="3.72855">
        <ele>682.29998779297</ele>
        <time>2012-01-28T08:56:01Z</time>
      </trkpt>
      <trkpt lat="45.36908" lon="3.72858">
        <ele>682</ele>
        <time>2012-01-28T08:56:03Z</time>
      </trkpt>
      <trkpt lat="45.36903" lon="3.72858">
        <ele>681.5</ele>
        <time>2012-01-28T08:56:05Z</time>
      </trkpt>
      <trkpt lat="45.36884" lon="3.72858">
        <ele>682.09997558594</ele>
        <time>2012-01-28T08:56:12Z</time>
      </trkpt>
      <trkpt lat="45.36878" lon="3.72857">
        <ele>681.40002441406</ele>
        <time>2012-01-28T08:56:15Z</time>
      </trkpt>
      <trkpt lat="45.3687" lon="3.72859">
        <ele>681.29998779297</ele>
        <time>2012-01-28T08:56:18Z</time>
      </trkpt>
      <trkpt lat="45.36865" lon="3.72865">
        <ele>680.90002441406</ele>
        <time>2012-01-28T08:56:22Z</time>
      </trkpt>
      <trkpt lat="45.36855" lon="3.72872">
        <ele>681.90002441406</ele>
        <time>2012-01-28T08:56:29Z</time>
      </trkpt>
      <trkpt lat="45.36848" lon="3.72876">
        <ele>682.09997558594</ele>
        <time>2012-01-28T08:56:34Z</time>
      </trkpt>
      <trkpt lat="45.36834" lon="3.7288">
        <ele>683.5</ele>
        <time>2012-01-28T08:56:44Z</time>
      </trkpt>
      <trkpt lat="45.36829" lon="3.72879">
        <ele>683.40002441406</ele>
        <time>2012-01-28T08:56:46Z</time>
      </trkpt>
      <trkpt lat="45.36817" lon="3.7288">
        <ele>684.40002441406</ele>
        <time>2012-01-28T08:56:50Z</time>
      </trkpt>
      <trkpt lat="45.36811" lon="3.72885">
        <ele>684.20001220703</ele>
        <time>2012-01-28T08:56:52Z</time>
      </trkpt>
      <trkpt lat="45.36807" lon="3.7289">
        <ele>684.09997558594</ele>
        <time>2012-01-28T08:56:53Z</time>
      </trkpt>
      <trkpt lat="45.36795" lon="3.72889">
        <ele>686.59997558594</ele>
        <time>2012-01-28T08:56:57Z</time>
      </trkpt>
      <trkpt lat="45.36789" lon="3.72892">
        <ele>686.20001220703</ele>
        <time>2012-01-28T08:56:59Z</time>
      </trkpt>
      <trkpt lat="45.3678" lon="3.72903">
        <ele>686.5</ele>
        <time>2012-01-28T08:57:04Z</time>
      </trkpt>
      <trkpt lat="45.36774" lon="3.72907">
        <ele>687.5</ele>
        <time>2012-01-28T08:57:06Z</time>
      </trkpt>
      <trkpt lat="45.3677" lon="3.72902">
        <ele>686.79998779297</ele>
        <time>2012-01-28T08:57:08Z</time>
      </trkpt>
      <trkpt lat="45.36766" lon="3.72905">
        <ele>688.59997558594</ele>
        <time>2012-01-28T08:57:11Z</time>
      </trkpt>
      <trkpt lat="45.36763" lon="3.7291">
        <ele>691.09997558594</ele>
        <time>2012-01-28T08:57:15Z</time>
      </trkpt>
      <trkpt lat="45.36757" lon="3.72911">
        <ele>691</ele>
        <time>2012-01-28T08:57:17Z</time>
      </trkpt>
      <trkpt lat="45.3675" lon="3.72918">
        <ele>687.29998779297</ele>
        <time>2012-01-28T08:57:23Z</time>
      </trkpt>
      <trkpt lat="45.36727" lon="3.72915">
        <ele>687.59997558594</ele>
        <time>2012-01-28T08:57:34Z</time>
      </trkpt>
      <trkpt lat="45.36736" lon="3.72916">
        <ele>684.20001220703</ele>
        <time>2012-01-28T08:57:49Z</time>
      </trkpt>
      <trkpt lat="45.36738" lon="3.72909">
        <ele>685.09997558594</ele>
        <time>2012-01-28T08:57:58Z</time>
      </trkpt>
      <trkpt lat="45.36743" lon="3.7291">
        <ele>686</ele>
        <time>2012-01-28T08:58:01Z</time>
      </trkpt>
      <trkpt lat="45.36756" lon="3.72897">
        <ele>685.59997558594</ele>
        <time>2012-01-28T08:58:07Z</time>
      </trkpt>
      <trkpt lat="45.36761" lon="3.72895">
        <ele>686.40002441406</ele>
        <time>2012-01-28T08:58:11Z</time>
      </trkpt>
      <trkpt lat="45.36765" lon="3.72893">
        <ele>686.70001220703</ele>
        <time>2012-01-28T08:58:19Z</time>
      </trkpt>
      <trkpt lat="45.3677" lon="3.72888">
        <ele>687</ele>
        <time>2012-01-28T08:58:21Z</time>
      </trkpt>
      <trkpt lat="45.36776" lon="3.72885">
        <ele>687.59997558594</ele>
        <time>2012-01-28T08:58:23Z</time>
      </trkpt>
      <trkpt lat="45.36782" lon="3.72885">
        <ele>687.79998779297</ele>
        <time>2012-01-28T08:58:24Z</time>
      </trkpt>
      <trkpt lat="45.36795" lon="3.72884">
        <ele>689.59997558594</ele>
        <time>2012-01-28T08:58:28Z</time>
      </trkpt>
      <trkpt lat="45.36801" lon="3.72884">
        <ele>688.79998779297</ele>
        <time>2012-01-28T08:58:30Z</time>
      </trkpt>
      <trkpt lat="45.36807" lon="3.72882">
        <ele>686</ele>
        <time>2012-01-28T08:58:34Z</time>
      </trkpt>
      <trkpt lat="45.36821" lon="3.72875">
        <ele>683.5</ele>
        <time>2012-01-28T08:58:38Z</time>
      </trkpt>
      <trkpt lat="45.36826" lon="3.72869">
        <ele>685.79998779297</ele>
        <time>2012-01-28T08:58:40Z</time>
      </trkpt>
      <trkpt lat="45.36831" lon="3.72866">
        <ele>687.40002441406</ele>
        <time>2012-01-28T08:58:42Z</time>
      </trkpt>
      <trkpt lat="45.36836" lon="3.72866">
        <ele>688.90002441406</ele>
        <time>2012-01-28T08:58:44Z</time>
      </trkpt>
      <trkpt lat="45.36842" lon="3.72864">
        <ele>690.09997558594</ele>
        <time>2012-01-28T08:58:47Z</time>
      </trkpt>
      <trkpt lat="45.36847" lon="3.72864">
        <ele>690.79998779297</ele>
        <time>2012-01-28T08:58:49Z</time>
      </trkpt>
      <trkpt lat="45.3686" lon="3.72862">
        <ele>693.79998779297</ele>
        <time>2012-01-28T08:58:54Z</time>
      </trkpt>
      <trkpt lat="45.36873" lon="3.72863">
        <ele>693.5</ele>
        <time>2012-01-28T08:58:58Z</time>
      </trkpt>
      <trkpt lat="45.36879" lon="3.7286">
        <ele>696.20001220703</ele>
        <time>2012-01-28T08:59:01Z</time>
      </trkpt>
      <trkpt lat="45.36891" lon="3.72855">
        <ele>699.79998779297</ele>
        <time>2012-01-28T08:59:06Z</time>
      </trkpt>
      <trkpt lat="45.36897" lon="3.72857">
        <ele>698.79998779297</ele>
        <time>2012-01-28T08:59:09Z</time>
      </trkpt>
      <trkpt lat="45.36903" lon="3.72858">
        <ele>697</ele>
        <time>2012-01-28T08:59:11Z</time>
      </trkpt>
      <trkpt lat="45.36907" lon="3.72852">
        <ele>693.29998779297</ele>
        <time>2012-01-28T08:59:13Z</time>
      </trkpt>
      <trkpt lat="45.36912" lon="3.72857">
        <ele>691.5</ele>
        <time>2012-01-28T08:59:15Z</time>
      </trkpt>
      <trkpt lat="45.36917" lon="3.72858">
        <ele>692.40002441406</ele>
        <time>2012-01-28T08:59:16Z</time>
      </trkpt>
      <trkpt lat="45.36926" lon="3.7286">
        <ele>690.29998779297</ele>
        <time>2012-01-28T08:59:22Z</time>
      </trkpt>
      <trkpt lat="45.36935" lon="3.72854">
        <ele>695.29998779297</ele>
        <time>2012-01-28T08:59:25Z</time>
      </trkpt>
      <trkpt lat="45.36939" lon="3.72848">
        <ele>696.09997558594</ele>
        <time>2012-01-28T08:59:27Z</time>
      </trkpt>
      <trkpt lat="45.36947" lon="3.72848">
        <ele>693</ele>
        <time>2012-01-28T08:59:31Z</time>
      </trkpt>
      <trkpt lat="45.36951" lon="3.7284">
        <ele>692.20001220703</ele>
        <time>2012-01-28T08:59:34Z</time>
      </trkpt>
      <trkpt lat="45.36958" lon="3.72835">
        <ele>693.29998779297</ele>
        <time>2012-01-28T08:59:38Z</time>
      </trkpt>
      <trkpt lat="45.3696" lon="3.72835">
        <ele>693.51348876953</ele>
        <time>2012-01-28T08:59:38Z</time>
      </trkpt>
      <trkpt lat="45.36969" lon="3.72834">
        <ele>691.79998779297</ele>
        <time>2012-01-28T08:59:39Z</time>
      </trkpt>
      <trkpt lat="45.36973" lon="3.72837">
        <ele>689.59997558594</ele>
        <time>2012-01-28T08:59:42Z</time>
      </trkpt>
      <trkpt lat="45.36978" lon="3.72834">
        <ele>686.70001220703</ele>
        <time>2012-01-28T08:59:43Z</time>
      </trkpt>
      <trkpt lat="45.36983" lon="3.72837">
        <ele>685.90002441406</ele>
        <time>2012-01-28T08:59:46Z</time>
      </trkpt>
      <trkpt lat="45.36987" lon="3.72835">
        <ele>686.79998779297</ele>
        <time>2012-01-28T08:59:47Z</time>
      </trkpt>
      <trkpt lat="45.36999" lon="3.72809">
        <ele>688.20001220703</ele>
        <time>2012-01-28T08:59:55Z</time>
      </trkpt>
      <trkpt lat="45.37005" lon="3.72802">
        <ele>690</ele>
        <time>2012-01-28T08:59:57Z</time>
      </trkpt>
      <trkpt lat="45.37005" lon="3.72799">
        <ele>690.24371337891</ele>
        <time>2012-01-28T08:59:57Z</time>
      </trkpt>
      <trkpt lat="45.37009" lon="3.7279">
        <ele>693.40002441406</ele>
        <time>2012-01-28T09:00:00Z</time>
      </trkpt>
      <trkpt lat="45.37015" lon="3.72792">
        <ele>695.29998779297</ele>
        <time>2012-01-28T09:00:03Z</time>
      </trkpt>
      <trkpt lat="45.3702" lon="3.72795">
        <ele>696.70001220703</ele>
        <time>2012-01-28T09:00:05Z</time>
      </trkpt>
      <trkpt lat="45.37028" lon="3.72794">
        <ele>695.20001220703</ele>
        <time>2012-01-28T09:00:08Z</time>
      </trkpt>
      <trkpt lat="45.3703" lon="3.72787">
        <ele>691.09997558594</ele>
        <time>2012-01-28T09:00:12Z</time>
      </trkpt>
      <trkpt lat="45.37041" lon="3.7279">
        <ele>693.20001220703</ele>
        <time>2012-01-28T09:00:14Z</time>
      </trkpt>
      <trkpt lat="45.37046" lon="3.72792">
        <ele>694.20001220703</ele>
        <time>2012-01-28T09:00:16Z</time>
      </trkpt>
      <trkpt lat="45.37052" lon="3.72797">
        <ele>693.79998779297</ele>
        <time>2012-01-28T09:00:21Z</time>
      </trkpt>
      <trkpt lat="45.37061" lon="3.72802">
        <ele>691.29998779297</ele>
        <time>2012-01-28T09:00:25Z</time>
      </trkpt>
      <trkpt lat="45.37077" lon="3.72817">
        <ele>688.90002441406</ele>
        <time>2012-01-28T09:00:32Z</time>
      </trkpt>
      <trkpt lat="45.37081" lon="3.72819">
        <ele>688.09997558594</ele>
        <time>2012-01-28T09:00:35Z</time>
      </trkpt>
      <trkpt lat="45.37088" lon="3.72816">
        <ele>687.90002441406</ele>
        <time>2012-01-28T09:00:41Z</time>
      </trkpt>
      <trkpt lat="45.37097" lon="3.7282">
        <ele>685.70001220703</ele>
        <time>2012-01-28T09:00:45Z</time>
      </trkpt>
      <trkpt lat="45.37104" lon="3.72825">
        <ele>684.5</ele>
        <time>2012-01-28T09:00:48Z</time>
      </trkpt>
      <trkpt lat="45.3711" lon="3.72825">
        <ele>683.29998779297</ele>
        <time>2012-01-28T09:00:52Z</time>
      </trkpt>
      <trkpt lat="45.37115" lon="3.72827">
        <ele>683.70001220703</ele>
        <time>2012-01-28T09:00:54Z</time>
      </trkpt>
      <trkpt lat="45.3712" lon="3.72833">
        <ele>683.09997558594</ele>
        <time>2012-01-28T09:00:57Z</time>
      </trkpt>
      <trkpt lat="45.37134" lon="3.7284">
        <ele>683.29998779297</ele>
        <time>2012-01-28T09:01:02Z</time>
      </trkpt>
      <trkpt lat="45.37151" lon="3.72852">
        <ele>681.5</ele>
        <time>2012-01-28T09:01:10Z</time>
      </trkpt>
      <trkpt lat="45.37157" lon="3.72846">
        <ele>681.29998779297</ele>
        <time>2012-01-28T09:01:12Z</time>
      </trkpt>
      <trkpt lat="45.37162" lon="3.72847">
        <ele>681.79998779297</ele>
        <time>2012-01-28T09:01:16Z</time>
      </trkpt>
      <trkpt lat="45.37167" lon="3.72854">
        <ele>679.09997558594</ele>
        <time>2012-01-28T09:01:18Z</time>
      </trkpt>
      <trkpt lat="45.37177" lon="3.72875">
        <ele>684</ele>
        <time>2012-01-28T09:01:29Z</time>
      </trkpt>
      <trkpt lat="45.37186" lon="3.72883">
        <ele>682.59997558594</ele>
        <time>2012-01-28T09:01:32Z</time>
      </trkpt>
      <trkpt lat="45.37203" lon="3.72902">
        <ele>684.09997558594</ele>
        <time>2012-01-28T09:01:41Z</time>
      </trkpt>
      <trkpt lat="45.37212" lon="3.72901">
        <ele>683.59997558594</ele>
        <time>2012-01-28T09:01:42Z</time>
      </trkpt>
      <trkpt lat="45.37219" lon="3.72902">
        <ele>686.79998779297</ele>
        <time>2012-01-28T09:01:44Z</time>
      </trkpt>
      <trkpt lat="45.37225" lon="3.72904">
        <ele>684.79998779297</ele>
        <time>2012-01-28T09:01:46Z</time>
      </trkpt>
      <trkpt lat="45.37232" lon="3.72915">
        <ele>682</ele>
        <time>2012-01-28T09:01:49Z</time>
      </trkpt>
      <trkpt lat="45.37237" lon="3.72922">
        <ele>685.90002441406</ele>
        <time>2012-01-28T09:01:53Z</time>
      </trkpt>
      <trkpt lat="45.37241" lon="3.72932">
        <ele>683.70001220703</ele>
        <time>2012-01-28T09:01:57Z</time>
      </trkpt>
      <trkpt lat="45.37249" lon="3.72936">
        <ele>683</ele>
        <time>2012-01-28T09:01:59Z</time>
      </trkpt>
      <trkpt lat="45.37254" lon="3.72941">
        <ele>683.40002441406</ele>
        <time>2012-01-28T09:02:01Z</time>
      </trkpt>
      <trkpt lat="45.37254" lon="3.7296">
        <ele>669.59997558594</ele>
        <time>2012-01-28T09:02:09Z</time>
      </trkpt>
      <trkpt lat="45.37253" lon="3.72968">
        <ele>671.5</ele>
        <time>2012-01-28T09:02:12Z</time>
      </trkpt>
      <trkpt lat="45.37258" lon="3.72975">
        <ele>672.20001220703</ele>
        <time>2012-01-28T09:02:17Z</time>
      </trkpt>
      <trkpt lat="45.37264" lon="3.72974">
        <ele>673.79998779297</ele>
        <time>2012-01-28T09:02:19Z</time>
      </trkpt>
      <trkpt lat="45.37281" lon="3.72986">
        <ele>672</ele>
        <time>2012-01-28T09:02:27Z</time>
      </trkpt>
      <trkpt lat="45.37289" lon="3.72993">
        <ele>673.29998779297</ele>
        <time>2012-01-28T09:02:30Z</time>
      </trkpt>
      <trkpt lat="45.37295" lon="3.72996">
        <ele>672.29998779297</ele>
        <time>2012-01-28T09:02:32Z</time>
      </trkpt>
      <trkpt lat="45.373" lon="3.72999">
        <ele>672</ele>
        <time>2012-01-28T09:02:34Z</time>
      </trkpt>
      <trkpt lat="45.37308" lon="3.73008">
        <ele>672.59997558594</ele>
        <time>2012-01-28T09:02:38Z</time>
      </trkpt>
      <trkpt lat="45.37314" lon="3.7301">
        <ele>673.79998779297</ele>
        <time>2012-01-28T09:02:41Z</time>
      </trkpt>
      <trkpt lat="45.37319" lon="3.73012">
        <ele>677.79998779297</ele>
        <time>2012-01-28T09:02:44Z</time>
      </trkpt>
      <trkpt lat="45.37324" lon="3.73019">
        <ele>674.79998779297</ele>
        <time>2012-01-28T09:02:48Z</time>
      </trkpt>
      <trkpt lat="45.37329" lon="3.73033">
        <ele>671.40002441406</ele>
        <time>2012-01-28T09:02:53Z</time>
      </trkpt>
      <trkpt lat="45.37334" lon="3.73037">
        <ele>671.59997558594</ele>
        <time>2012-01-28T09:02:56Z</time>
      </trkpt>
      <trkpt lat="45.37341" lon="3.73043">
        <ele>670.5</ele>
        <time>2012-01-28T09:02:59Z</time>
      </trkpt>
      <trkpt lat="45.37346" lon="3.73045">
        <ele>672.79998779297</ele>
        <time>2012-01-28T09:03:00Z</time>
      </trkpt>
      <trkpt lat="45.37345" lon="3.73054">
        <ele>671.09997558594</ele>
        <time>2012-01-28T09:03:02Z</time>
      </trkpt>
      <trkpt lat="45.37354" lon="3.73068">
        <ele>672.20001220703</ele>
        <time>2012-01-28T09:03:09Z</time>
      </trkpt>
      <trkpt lat="45.37355" lon="3.73068">
        <ele>672.13311767578</ele>
        <time>2012-01-28T09:03:09Z</time>
      </trkpt>
      <trkpt lat="45.37362" lon="3.7307">
        <ele>671.90002441406</ele>
        <time>2012-01-28T09:03:11Z</time>
      </trkpt>
      <trkpt lat="45.37365" lon="3.73077">
        <ele>671.90002441406</ele>
        <time>2012-01-28T09:03:14Z</time>
      </trkpt>
      <trkpt lat="45.37371" lon="3.73082">
        <ele>672</ele>
        <time>2012-01-28T09:03:16Z</time>
      </trkpt>
      <trkpt lat="45.37367" lon="3.73086">
        <ele>670.79998779297</ele>
        <time>2012-01-28T09:03:17Z</time>
      </trkpt>
      <trkpt lat="45.3737" lon="3.73094">
        <ele>668.59997558594</ele>
        <time>2012-01-28T09:03:21Z</time>
      </trkpt>
      <trkpt lat="45.37368" lon="3.73103">
        <ele>667.40002441406</ele>
        <time>2012-01-28T09:03:23Z</time>
      </trkpt>
      <trkpt lat="45.3737" lon="3.7311">
        <ele>672.29998779297</ele>
        <time>2012-01-28T09:03:25Z</time>
      </trkpt>
      <trkpt lat="45.3737" lon="3.73116">
        <ele>672.40002441406</ele>
        <time>2012-01-28T09:03:28Z</time>
      </trkpt>
      <trkpt lat="45.37371" lon="3.73127">
        <ele>673.09997558594</ele>
        <time>2012-01-28T09:03:31Z</time>
      </trkpt>
      <trkpt lat="45.37372" lon="3.73135">
        <ele>673.40002441406</ele>
        <time>2012-01-28T09:03:34Z</time>
      </trkpt>
      <trkpt lat="45.37373" lon="3.73143">
        <ele>672.79998779297</ele>
        <time>2012-01-28T09:03:37Z</time>
      </trkpt>
      <trkpt lat="45.37373" lon="3.73168">
        <ele>674.09997558594</ele>
        <time>2012-01-28T09:03:46Z</time>
      </trkpt>
      <trkpt lat="45.37377" lon="3.73175">
        <ele>669.20001220703</ele>
        <time>2012-01-28T09:03:52Z</time>
      </trkpt>
      <trkpt lat="45.37376" lon="3.73183">
        <ele>669.40002441406</ele>
        <time>2012-01-28T09:03:54Z</time>
      </trkpt>
      <trkpt lat="45.37374" lon="3.73189">
        <ele>668.20001220703</ele>
        <time>2012-01-28T09:03:56Z</time>
      </trkpt>
      <trkpt lat="45.37378" lon="3.73194">
        <ele>667.90002441406</ele>
        <time>2012-01-28T09:03:57Z</time>
      </trkpt>
      <trkpt lat="45.3738" lon="3.732">
        <ele>668.59997558594</ele>
        <time>2012-01-28T09:03:59Z</time>
      </trkpt>
      <trkpt lat="45.37381" lon="3.7321">
        <ele>672.70001220703</ele>
        <time>2012-01-28T09:04:03Z</time>
      </trkpt>
      <trkpt lat="45.37381" lon="3.73219">
        <ele>673.20001220703</ele>
        <time>2012-01-28T09:04:06Z</time>
      </trkpt>
      <trkpt lat="45.37387" lon="3.73226">
        <ele>671.90002441406</ele>
        <time>2012-01-28T09:04:08Z</time>
      </trkpt>
      <trkpt lat="45.37389" lon="3.73234">
        <ele>670.90002441406</ele>
        <time>2012-01-28T09:04:11Z</time>
      </trkpt>
      <trkpt lat="45.37389" lon="3.73242">
        <ele>671.20001220703</ele>
        <time>2012-01-28T09:04:13Z</time>
      </trkpt>
      <trkpt lat="45.37391" lon="3.73249">
        <ele>671.59997558594</ele>
        <time>2012-01-28T09:04:16Z</time>
      </trkpt>
      <trkpt lat="45.37395" lon="3.73255">
        <ele>670.79998779297</ele>
        <time>2012-01-28T09:04:18Z</time>
      </trkpt>
      <trkpt lat="45.37398" lon="3.73266">
        <ele>672.40002441406</ele>
        <time>2012-01-28T09:04:21Z</time>
      </trkpt>
      <trkpt lat="45.37402" lon="3.73276">
        <ele>674.70001220703</ele>
        <time>2012-01-28T09:04:25Z</time>
      </trkpt>
      <trkpt lat="45.37405" lon="3.73281">
        <ele>672.79998779297</ele>
        <time>2012-01-28T09:04:28Z</time>
      </trkpt>
      <trkpt lat="45.37413" lon="3.7329">
        <ele>674.59997558594</ele>
        <time>2012-01-28T09:04:34Z</time>
      </trkpt>
      <trkpt lat="45.37419" lon="3.73293">
        <ele>674.90002441406</ele>
        <time>2012-01-28T09:04:38Z</time>
      </trkpt>
      <trkpt lat="45.37431" lon="3.73297">
        <ele>682.40002441406</ele>
        <time>2012-01-28T09:04:42Z</time>
      </trkpt>
      <trkpt lat="45.37436" lon="3.73302">
        <ele>677.90002441406</ele>
        <time>2012-01-28T09:04:44Z</time>
      </trkpt>
      <trkpt lat="45.37439" lon="3.73307">
        <ele>674.29998779297</ele>
        <time>2012-01-28T09:04:46Z</time>
      </trkpt>
      <trkpt lat="45.37443" lon="3.73311">
        <ele>674.59997558594</ele>
        <time>2012-01-28T09:04:48Z</time>
      </trkpt>
      <trkpt lat="45.37447" lon="3.73316">
        <ele>674.90002441406</ele>
        <time>2012-01-28T09:04:51Z</time>
      </trkpt>
      <trkpt lat="45.37452" lon="3.7332">
        <ele>676</ele>
        <time>2012-01-28T09:04:55Z</time>
      </trkpt>
      <trkpt lat="45.37457" lon="3.73325">
        <ele>675.59997558594</ele>
        <time>2012-01-28T09:04:57Z</time>
      </trkpt>
      <trkpt lat="45.37466" lon="3.73338">
        <ele>677.5</ele>
        <time>2012-01-28T09:05:01Z</time>
      </trkpt>
      <trkpt lat="45.37471" lon="3.7334">
        <ele>669.40002441406</ele>
        <time>2012-01-28T09:05:04Z</time>
      </trkpt>
      <trkpt lat="45.37482" lon="3.73349">
        <ele>666.79998779297</ele>
        <time>2012-01-28T09:05:09Z</time>
      </trkpt>
      <trkpt lat="45.37486" lon="3.73355">
        <ele>665.70001220703</ele>
        <time>2012-01-28T09:05:13Z</time>
      </trkpt>
      <trkpt lat="45.37492" lon="3.73359">
        <ele>665.79998779297</ele>
        <time>2012-01-28T09:05:15Z</time>
      </trkpt>
      <trkpt lat="45.37496" lon="3.73367">
        <ele>666.59997558594</ele>
        <time>2012-01-28T09:05:19Z</time>
      </trkpt>
      <trkpt lat="45.37501" lon="3.73374">
        <ele>663.70001220703</ele>
        <time>2012-01-28T09:05:21Z</time>
      </trkpt>
      <trkpt lat="45.37503" lon="3.7338">
        <ele>663.5</ele>
        <time>2012-01-28T09:05:23Z</time>
      </trkpt>
      <trkpt lat="45.37509" lon="3.7339">
        <ele>663.09997558594</ele>
        <time>2012-01-28T09:05:27Z</time>
      </trkpt>
      <trkpt lat="45.37511" lon="3.73396">
        <ele>664</ele>
        <time>2012-01-28T09:05:29Z</time>
      </trkpt>
      <trkpt lat="45.37512" lon="3.73403">
        <ele>665.79998779297</ele>
        <time>2012-01-28T09:05:31Z</time>
      </trkpt>
      <trkpt lat="45.37515" lon="3.73411">
        <ele>664.5</ele>
        <time>2012-01-28T09:05:34Z</time>
      </trkpt>
      <trkpt lat="45.37518" lon="3.7342">
        <ele>663</ele>
        <time>2012-01-28T09:05:37Z</time>
      </trkpt>
      <trkpt lat="45.3752" lon="3.73429">
        <ele>664.5</ele>
        <time>2012-01-28T09:05:40Z</time>
      </trkpt>
      <trkpt lat="45.37523" lon="3.73437">
        <ele>665</ele>
        <time>2012-01-28T09:05:42Z</time>
      </trkpt>
      <trkpt lat="45.37526" lon="3.73445">
        <ele>666.5</ele>
        <time>2012-01-28T09:05:45Z</time>
      </trkpt>
      <trkpt lat="45.37528" lon="3.73452">
        <ele>661.70001220703</ele>
        <time>2012-01-28T09:05:48Z</time>
      </trkpt>
      <trkpt lat="45.37531" lon="3.73459">
        <ele>659.90002441406</ele>
        <time>2012-01-28T09:05:51Z</time>
      </trkpt>
      <trkpt lat="45.37532" lon="3.73468">
        <ele>660.59997558594</ele>
        <time>2012-01-28T09:05:54Z</time>
      </trkpt>
      <trkpt lat="45.37532" lon="3.73474">
        <ele>660</ele>
        <time>2012-01-28T09:05:56Z</time>
      </trkpt>
      <trkpt lat="45.37532" lon="3.73481">
        <ele>660.59997558594</ele>
        <time>2012-01-28T09:05:59Z</time>
      </trkpt>
      <trkpt lat="45.37532" lon="3.7349">
        <ele>660.20001220703</ele>
        <time>2012-01-28T09:06:02Z</time>
      </trkpt>
      <trkpt lat="45.37532" lon="3.735">
        <ele>661.70001220703</ele>
        <time>2012-01-28T09:06:05Z</time>
      </trkpt>
      <trkpt lat="45.37531" lon="3.73509">
        <ele>661</ele>
        <time>2012-01-28T09:06:08Z</time>
      </trkpt>
      <trkpt lat="45.37531" lon="3.73517">
        <ele>661.59997558594</ele>
        <time>2012-01-28T09:06:11Z</time>
      </trkpt>
      <trkpt lat="45.3753" lon="3.73523">
        <ele>661.29998779297</ele>
        <time>2012-01-28T09:06:12Z</time>
      </trkpt>
      <trkpt lat="45.3753" lon="3.73535">
        <ele>658.40002441406</ele>
        <time>2012-01-28T09:06:16Z</time>
      </trkpt>
      <trkpt lat="45.3753" lon="3.73542">
        <ele>657.09997558594</ele>
        <time>2012-01-28T09:06:18Z</time>
      </trkpt>
      <trkpt lat="45.3753" lon="3.73548">
        <ele>656.70001220703</ele>
        <time>2012-01-28T09:06:20Z</time>
      </trkpt>
      <trkpt lat="45.3753" lon="3.73557">
        <ele>657.59997558594</ele>
        <time>2012-01-28T09:06:23Z</time>
      </trkpt>
      <trkpt lat="45.37532" lon="3.73565">
        <ele>652.90002441406</ele>
        <time>2012-01-28T09:06:28Z</time>
      </trkpt>
      <trkpt lat="45.37534" lon="3.73578">
        <ele>654.79998779297</ele>
        <time>2012-01-28T09:06:33Z</time>
      </trkpt>
      <trkpt lat="45.37535" lon="3.73587">
        <ele>656.20001220703</ele>
        <time>2012-01-28T09:06:36Z</time>
      </trkpt>
      <trkpt lat="45.37536" lon="3.73603">
        <ele>657</ele>
        <time>2012-01-28T09:06:40Z</time>
      </trkpt>
      <trkpt lat="45.37538" lon="3.7361">
        <ele>655.90002441406</ele>
        <time>2012-01-28T09:06:42Z</time>
      </trkpt>
      <trkpt lat="45.37539" lon="3.73616">
        <ele>656.70001220703</ele>
        <time>2012-01-28T09:06:45Z</time>
      </trkpt>
      <trkpt lat="45.3754" lon="3.73626">
        <ele>656.90002441406</ele>
        <time>2012-01-28T09:06:47Z</time>
      </trkpt>
      <trkpt lat="45.37545" lon="3.73635">
        <ele>655.09997558594</ele>
        <time>2012-01-28T09:06:52Z</time>
      </trkpt>
      <trkpt lat="45.37547" lon="3.73642">
        <ele>654.90002441406</ele>
        <time>2012-01-28T09:06:53Z</time>
      </trkpt>
      <trkpt lat="45.37549" lon="3.73653">
        <ele>657</ele>
        <time>2012-01-28T09:06:57Z</time>
      </trkpt>
      <trkpt lat="45.37552" lon="3.73664">
        <ele>653.59997558594</ele>
        <time>2012-01-28T09:07:02Z</time>
      </trkpt>
      <trkpt lat="45.37556" lon="3.73671">
        <ele>653.59997558594</ele>
        <time>2012-01-28T09:07:05Z</time>
      </trkpt>
      <trkpt lat="45.37559" lon="3.73679">
        <ele>653</ele>
        <time>2012-01-28T09:07:08Z</time>
      </trkpt>
      <trkpt lat="45.37571" lon="3.73701">
        <ele>653.5</ele>
        <time>2012-01-28T09:07:16Z</time>
      </trkpt>
      <trkpt lat="45.37573" lon="3.73708">
        <ele>653.40002441406</ele>
        <time>2012-01-28T09:07:17Z</time>
      </trkpt>
      <trkpt lat="45.37576" lon="3.73715">
        <ele>654.59997558594</ele>
        <time>2012-01-28T09:07:19Z</time>
      </trkpt>
      <trkpt lat="45.37581" lon="3.7372">
        <ele>654.59997558594</ele>
        <time>2012-01-28T09:07:22Z</time>
      </trkpt>
      <trkpt lat="45.37587" lon="3.73724">
        <ele>659</ele>
        <time>2012-01-28T09:07:24Z</time>
      </trkpt>
      <trkpt lat="45.37592" lon="3.73729">
        <ele>661.70001220703</ele>
        <time>2012-01-28T09:07:26Z</time>
      </trkpt>
      <trkpt lat="45.37598" lon="3.73739">
        <ele>660.09997558594</ele>
        <time>2012-01-28T09:07:32Z</time>
      </trkpt>
      <trkpt lat="45.37599" lon="3.73748">
        <ele>661.29998779297</ele>
        <time>2012-01-28T09:07:34Z</time>
      </trkpt>
      <trkpt lat="45.37603" lon="3.73753">
        <ele>664.20001220703</ele>
        <time>2012-01-28T09:07:36Z</time>
      </trkpt>
      <trkpt lat="45.37605" lon="3.7376">
        <ele>663.09997558594</ele>
        <time>2012-01-28T09:07:39Z</time>
      </trkpt>
      <trkpt lat="45.37608" lon="3.73765">
        <ele>663.20001220703</ele>
        <time>2012-01-28T09:07:40Z</time>
      </trkpt>
      <trkpt lat="45.3761" lon="3.73772">
        <ele>662.40002441406</ele>
        <time>2012-01-28T09:07:43Z</time>
      </trkpt>
      <trkpt lat="45.37615" lon="3.73774">
        <ele>668.5</ele>
        <time>2012-01-28T09:07:45Z</time>
      </trkpt>
      <trkpt lat="45.37623" lon="3.73789">
        <ele>669.5</ele>
        <time>2012-01-28T09:07:50Z</time>
      </trkpt>
      <trkpt lat="45.37626" lon="3.73794">
        <ele>672</ele>
        <time>2012-01-28T09:07:53Z</time>
      </trkpt>
      <trkpt lat="45.3764" lon="3.73823">
        <ele>676.79998779297</ele>
        <time>2012-01-28T09:08:04Z</time>
      </trkpt>
      <trkpt lat="45.37643" lon="3.7383">
        <ele>677</ele>
        <time>2012-01-28T09:08:06Z</time>
      </trkpt>
      <trkpt lat="45.37646" lon="3.73836">
        <ele>676.20001220703</ele>
        <time>2012-01-28T09:08:07Z</time>
      </trkpt>
      <trkpt lat="45.37651" lon="3.73841">
        <ele>676.29998779297</ele>
        <time>2012-01-28T09:08:10Z</time>
      </trkpt>
      <trkpt lat="45.37653" lon="3.73848">
        <ele>673.20001220703</ele>
        <time>2012-01-28T09:08:12Z</time>
      </trkpt>
      <trkpt lat="45.37656" lon="3.73853">
        <ele>671.09997558594</ele>
        <time>2012-01-28T09:08:15Z</time>
      </trkpt>
      <trkpt lat="45.37659" lon="3.7386">
        <ele>669.20001220703</ele>
        <time>2012-01-28T09:08:17Z</time>
      </trkpt>
      <trkpt lat="45.37663" lon="3.73867">
        <ele>668.70001220703</ele>
        <time>2012-01-28T09:08:20Z</time>
      </trkpt>
      <trkpt lat="45.37667" lon="3.73871">
        <ele>669.29998779297</ele>
        <time>2012-01-28T09:08:24Z</time>
      </trkpt>
      <trkpt lat="45.37675" lon="3.73888">
        <ele>669</ele>
        <time>2012-01-28T09:08:31Z</time>
      </trkpt>
      <trkpt lat="45.3768" lon="3.73891">
        <ele>670.59997558594</ele>
        <time>2012-01-28T09:08:33Z</time>
      </trkpt>
      <trkpt lat="45.37681" lon="3.739">
        <ele>670.5</ele>
        <time>2012-01-28T09:08:36Z</time>
      </trkpt>
      <trkpt lat="45.37682" lon="3.73907">
        <ele>671.20001220703</ele>
        <time>2012-01-28T09:08:38Z</time>
      </trkpt>
      <trkpt lat="45.37682" lon="3.73916">
        <ele>670.5</ele>
        <time>2012-01-28T09:08:40Z</time>
      </trkpt>
      <trkpt lat="45.37688" lon="3.73924">
        <ele>670.29998779297</ele>
        <time>2012-01-28T09:08:43Z</time>
      </trkpt>
      <trkpt lat="45.37689" lon="3.73931">
        <ele>670.59997558594</ele>
        <time>2012-01-28T09:08:45Z</time>
      </trkpt>
      <trkpt lat="45.37694" lon="3.73932">
        <ele>674.90002441406</ele>
        <time>2012-01-28T09:08:46Z</time>
      </trkpt>
      <trkpt lat="45.37699" lon="3.73934">
        <ele>677</ele>
        <time>2012-01-28T09:08:48Z</time>
      </trkpt>
      <trkpt lat="45.37703" lon="3.73939">
        <ele>676.90002441406</ele>
        <time>2012-01-28T09:08:50Z</time>
      </trkpt>
      <trkpt lat="45.37711" lon="3.73945">
        <ele>678.20001220703</ele>
        <time>2012-01-28T09:08:54Z</time>
      </trkpt>
      <trkpt lat="45.37715" lon="3.73952">
        <ele>676.20001220703</ele>
        <time>2012-01-28T09:08:55Z</time>
      </trkpt>
      <trkpt lat="45.37717" lon="3.73959">
        <ele>674.5</ele>
        <time>2012-01-28T09:08:57Z</time>
      </trkpt>
      <trkpt lat="45.37715" lon="3.73965">
        <ele>671.20001220703</ele>
        <time>2012-01-28T09:08:59Z</time>
      </trkpt>
      <trkpt lat="45.37716" lon="3.73974">
        <ele>668</ele>
        <time>2012-01-28T09:09:04Z</time>
      </trkpt>
      <trkpt lat="45.37717" lon="3.73982">
        <ele>669.29998779297</ele>
        <time>2012-01-28T09:09:07Z</time>
      </trkpt>
      <trkpt lat="45.37721" lon="3.73987">
        <ele>668.70001220703</ele>
        <time>2012-01-28T09:09:09Z</time>
      </trkpt>
      <trkpt lat="45.37725" lon="3.73992">
        <ele>669.79998779297</ele>
        <time>2012-01-28T09:09:11Z</time>
      </trkpt>
      <trkpt lat="45.37733" lon="3.74006">
        <ele>669</ele>
        <time>2012-01-28T09:09:17Z</time>
      </trkpt>
      <trkpt lat="45.37736" lon="3.74014">
        <ele>667.20001220703</ele>
        <time>2012-01-28T09:09:21Z</time>
      </trkpt>
      <trkpt lat="45.37739" lon="3.74027">
        <ele>668.29998779297</ele>
        <time>2012-01-28T09:09:27Z</time>
      </trkpt>
      <trkpt lat="45.37748" lon="3.74033">
        <ele>663.20001220703</ele>
        <time>2012-01-28T09:09:32Z</time>
      </trkpt>
      <trkpt lat="45.37746" lon="3.74039">
        <ele>663.79998779297</ele>
        <time>2012-01-28T09:09:34Z</time>
      </trkpt>
      <trkpt lat="45.3775" lon="3.74047">
        <ele>665.29998779297</ele>
        <time>2012-01-28T09:09:39Z</time>
      </trkpt>
      <trkpt lat="45.37753" lon="3.74065">
        <ele>662</ele>
        <time>2012-01-28T09:09:45Z</time>
      </trkpt>
      <trkpt lat="45.37754" lon="3.74063">
        <ele>663.09851074219</ele>
        <time>2012-01-28T09:09:46Z</time>
      </trkpt>
      <trkpt lat="45.37758" lon="3.74067">
        <ele>663.29998779297</ele>
        <time>2012-01-28T09:09:49Z</time>
      </trkpt>
      <trkpt lat="45.3776" lon="3.74074">
        <ele>664.09997558594</ele>
        <time>2012-01-28T09:09:51Z</time>
      </trkpt>
      <trkpt lat="45.37761" lon="3.7408">
        <ele>664.70001220703</ele>
        <time>2012-01-28T09:09:54Z</time>
      </trkpt>
      <trkpt lat="45.37764" lon="3.74092">
        <ele>666</ele>
        <time>2012-01-28T09:09:59Z</time>
      </trkpt>
      <trkpt lat="45.3777" lon="3.74095">
        <ele>665.40002441406</ele>
        <time>2012-01-28T09:10:02Z</time>
      </trkpt>
      <trkpt lat="45.37773" lon="3.74101">
        <ele>663.90002441406</ele>
        <time>2012-01-28T09:10:03Z</time>
      </trkpt>
      <trkpt lat="45.37776" lon="3.74105">
        <ele>662.79998779297</ele>
        <time>2012-01-28T09:10:05Z</time>
      </trkpt>
      <trkpt lat="45.3778" lon="3.74111">
        <ele>663.90002441406</ele>
        <time>2012-01-28T09:10:06Z</time>
      </trkpt>
      <trkpt lat="45.3778" lon="3.74119">
        <ele>662.70001220703</ele>
        <time>2012-01-28T09:10:08Z</time>
      </trkpt>
      <trkpt lat="45.37782" lon="3.74128">
        <ele>665.09997558594</ele>
        <time>2012-01-28T09:10:11Z</time>
      </trkpt>
      <trkpt lat="45.37783" lon="3.74134">
        <ele>665.59997558594</ele>
        <time>2012-01-28T09:10:14Z</time>
      </trkpt>
      <trkpt lat="45.37785" lon="3.7414">
        <ele>665.79998779297</ele>
        <time>2012-01-28T09:10:15Z</time>
      </trkpt>
      <trkpt lat="45.37788" lon="3.74145">
        <ele>664.79998779297</ele>
        <time>2012-01-28T09:10:17Z</time>
      </trkpt>
      <trkpt lat="45.37789" lon="3.74152">
        <ele>663.70001220703</ele>
        <time>2012-01-28T09:10:20Z</time>
      </trkpt>
      <trkpt lat="45.37793" lon="3.74171">
        <ele>663.70001220703</ele>
        <time>2012-01-28T09:10:23Z</time>
      </trkpt>
      <trkpt lat="45.37795" lon="3.74177">
        <ele>663.79998779297</ele>
        <time>2012-01-28T09:10:25Z</time>
      </trkpt>
      <trkpt lat="45.37798" lon="3.74183">
        <ele>664.59997558594</ele>
        <time>2012-01-28T09:10:30Z</time>
      </trkpt>
      <trkpt lat="45.378" lon="3.74191">
        <ele>661.79998779297</ele>
        <time>2012-01-28T09:10:32Z</time>
      </trkpt>
      <trkpt lat="45.37806" lon="3.74196">
        <ele>655.40002441406</ele>
        <time>2012-01-28T09:10:37Z</time>
      </trkpt>
      <trkpt lat="45.37806" lon="3.74204">
        <ele>655.59997558594</ele>
        <time>2012-01-28T09:10:38Z</time>
      </trkpt>
      <trkpt lat="45.37808" lon="3.74213">
        <ele>658.20001220703</ele>
        <time>2012-01-28T09:10:41Z</time>
      </trkpt>
      <trkpt lat="45.37809" lon="3.74219">
        <ele>657.40002441406</ele>
        <time>2012-01-28T09:10:44Z</time>
      </trkpt>
      <trkpt lat="45.37811" lon="3.74229">
        <ele>657.09997558594</ele>
        <time>2012-01-28T09:10:46Z</time>
      </trkpt>
      <trkpt lat="45.37809" lon="3.74237">
        <ele>660.79998779297</ele>
        <time>2012-01-28T09:10:48Z</time>
      </trkpt>
      <trkpt lat="45.37809" lon="3.74245">
        <ele>660.40002441406</ele>
        <time>2012-01-28T09:10:50Z</time>
      </trkpt>
      <trkpt lat="45.3781" lon="3.74252">
        <ele>660.29998779297</ele>
        <time>2012-01-28T09:10:52Z</time>
      </trkpt>
      <trkpt lat="45.3781" lon="3.7426">
        <ele>658.09997558594</ele>
        <time>2012-01-28T09:10:55Z</time>
      </trkpt>
      <trkpt lat="45.37811" lon="3.74267">
        <ele>657.5</ele>
        <time>2012-01-28T09:10:59Z</time>
      </trkpt>
      <trkpt lat="45.37811" lon="3.74277">
        <ele>657.40002441406</ele>
        <time>2012-01-28T09:11:01Z</time>
      </trkpt>
      <trkpt lat="45.37812" lon="3.74288">
        <ele>657.09997558594</ele>
        <time>2012-01-28T09:11:05Z</time>
      </trkpt>
      <trkpt lat="45.37813" lon="3.74298">
        <ele>657.90002441406</ele>
        <time>2012-01-28T09:11:08Z</time>
      </trkpt>
      <trkpt lat="45.37815" lon="3.74306">
        <ele>656</ele>
        <time>2012-01-28T09:11:11Z</time>
      </trkpt>
      <trkpt lat="45.37817" lon="3.74312">
        <ele>656.79998779297</ele>
        <time>2012-01-28T09:11:13Z</time>
      </trkpt>
      <trkpt lat="45.37818" lon="3.74321">
        <ele>660.40002441406</ele>
        <time>2012-01-28T09:11:14Z</time>
      </trkpt>
      <trkpt lat="45.37821" lon="3.74329">
        <ele>660.70001220703</ele>
        <time>2012-01-28T09:11:18Z</time>
      </trkpt>
      <trkpt lat="45.37825" lon="3.74336">
        <ele>661.90002441406</ele>
        <time>2012-01-28T09:11:21Z</time>
      </trkpt>
      <trkpt lat="45.37829" lon="3.74345">
        <ele>662.40002441406</ele>
        <time>2012-01-28T09:11:24Z</time>
      </trkpt>
      <trkpt lat="45.37832" lon="3.74353">
        <ele>662.40002441406</ele>
        <time>2012-01-28T09:11:27Z</time>
      </trkpt>
      <trkpt lat="45.37834" lon="3.7436">
        <ele>663.40002441406</ele>
        <time>2012-01-28T09:11:29Z</time>
      </trkpt>
      <trkpt lat="45.37836" lon="3.74365">
        <ele>662.70001220703</ele>
        <time>2012-01-28T09:11:31Z</time>
      </trkpt>
      <trkpt lat="45.37839" lon="3.74391">
        <ele>664.5</ele>
        <time>2012-01-28T09:11:38Z</time>
      </trkpt>
      <trkpt lat="45.3784" lon="3.74398">
        <ele>663.70001220703</ele>
        <time>2012-01-28T09:11:40Z</time>
      </trkpt>
      <trkpt lat="45.37843" lon="3.74406">
        <ele>663.29998779297</ele>
        <time>2012-01-28T09:11:44Z</time>
      </trkpt>
      <trkpt lat="45.37843" lon="3.74415">
        <ele>664.20001220703</ele>
        <time>2012-01-28T09:11:46Z</time>
      </trkpt>
      <trkpt lat="45.37843" lon="3.74423">
        <ele>664.59997558594</ele>
        <time>2012-01-28T09:11:48Z</time>
      </trkpt>
      <trkpt lat="45.37844" lon="3.74432">
        <ele>663.5</ele>
        <time>2012-01-28T09:11:51Z</time>
      </trkpt>
      <trkpt lat="45.37846" lon="3.74439">
        <ele>662.20001220703</ele>
        <time>2012-01-28T09:11:54Z</time>
      </trkpt>
      <trkpt lat="45.37847" lon="3.74449">
        <ele>660.5</ele>
        <time>2012-01-28T09:11:59Z</time>
      </trkpt>
      <trkpt lat="45.37848" lon="3.74457">
        <ele>658.29998779297</ele>
        <time>2012-01-28T09:12:02Z</time>
      </trkpt>
      <trkpt lat="45.37856" lon="3.74475">
        <ele>659.5</ele>
        <time>2012-01-28T09:12:07Z</time>
      </trkpt>
      <trkpt lat="45.37861" lon="3.74476">
        <ele>659.09997558594</ele>
        <time>2012-01-28T09:12:09Z</time>
      </trkpt>
      <trkpt lat="45.37866" lon="3.74485">
        <ele>658.5</ele>
        <time>2012-01-28T09:12:13Z</time>
      </trkpt>
      <trkpt lat="45.37868" lon="3.74491">
        <ele>659.20001220703</ele>
        <time>2012-01-28T09:12:15Z</time>
      </trkpt>
      <trkpt lat="45.3787" lon="3.74497">
        <ele>659.59997558594</ele>
        <time>2012-01-28T09:12:17Z</time>
      </trkpt>
      <trkpt lat="45.37873" lon="3.74503">
        <ele>659.90002441406</ele>
        <time>2012-01-28T09:12:19Z</time>
      </trkpt>
      <trkpt lat="45.37876" lon="3.74508">
        <ele>660.09997558594</ele>
        <time>2012-01-28T09:12:21Z</time>
      </trkpt>
      <trkpt lat="45.3788" lon="3.74513">
        <ele>659.79998779297</ele>
        <time>2012-01-28T09:12:23Z</time>
      </trkpt>
      <trkpt lat="45.37883" lon="3.74518">
        <ele>660</ele>
        <time>2012-01-28T09:12:25Z</time>
      </trkpt>
      <trkpt lat="45.37887" lon="3.74523">
        <ele>660.20001220703</ele>
        <time>2012-01-28T09:12:27Z</time>
      </trkpt>
      <trkpt lat="45.37889" lon="3.74528">
        <ele>659.5</ele>
        <time>2012-01-28T09:12:29Z</time>
      </trkpt>
      <trkpt lat="45.37892" lon="3.74534">
        <ele>661.40002441406</ele>
        <time>2012-01-28T09:12:31Z</time>
      </trkpt>
      <trkpt lat="45.37895" lon="3.74539">
        <ele>661.20001220703</ele>
        <time>2012-01-28T09:12:32Z</time>
      </trkpt>
      <trkpt lat="45.379" lon="3.74547">
        <ele>658.79998779297</ele>
        <time>2012-01-28T09:12:37Z</time>
      </trkpt>
      <trkpt lat="45.37905" lon="3.74553">
        <ele>660</ele>
        <time>2012-01-28T09:12:40Z</time>
      </trkpt>
      <trkpt lat="45.37909" lon="3.74556">
        <ele>660.29998779297</ele>
        <time>2012-01-28T09:12:42Z</time>
      </trkpt>
      <trkpt lat="45.37914" lon="3.74563">
        <ele>661.90002441406</ele>
        <time>2012-01-28T09:12:45Z</time>
      </trkpt>
      <trkpt lat="45.37917" lon="3.74569">
        <ele>663.20001220703</ele>
        <time>2012-01-28T09:12:46Z</time>
      </trkpt>
      <trkpt lat="45.37921" lon="3.74575">
        <ele>664</ele>
        <time>2012-01-28T09:12:49Z</time>
      </trkpt>
      <trkpt lat="45.37927" lon="3.74579">
        <ele>662.09997558594</ele>
        <time>2012-01-28T09:12:52Z</time>
      </trkpt>
      <trkpt lat="45.37935" lon="3.74588">
        <ele>663.79998779297</ele>
        <time>2012-01-28T09:12:56Z</time>
      </trkpt>
      <trkpt lat="45.3795" lon="3.74615">
        <ele>664.70001220703</ele>
        <time>2012-01-28T09:13:06Z</time>
      </trkpt>
      <trkpt lat="45.37954" lon="3.74622">
        <ele>665.29998779297</ele>
        <time>2012-01-28T09:13:08Z</time>
      </trkpt>
      <trkpt lat="45.37959" lon="3.74626">
        <ele>664.5</ele>
        <time>2012-01-28T09:13:12Z</time>
      </trkpt>
      <trkpt lat="45.37962" lon="3.74631">
        <ele>666.5</ele>
        <time>2012-01-28T09:13:14Z</time>
      </trkpt>
      <trkpt lat="45.37968" lon="3.74638">
        <ele>667</ele>
        <time>2012-01-28T09:13:17Z</time>
      </trkpt>
      <trkpt lat="45.37971" lon="3.74644">
        <ele>665.90002441406</ele>
        <time>2012-01-28T09:13:18Z</time>
      </trkpt>
      <trkpt lat="45.37974" lon="3.7465">
        <ele>665.79998779297</ele>
        <time>2012-01-28T09:13:22Z</time>
      </trkpt>
      <trkpt lat="45.37976" lon="3.74656">
        <ele>665.29998779297</ele>
        <time>2012-01-28T09:13:24Z</time>
      </trkpt>
      <trkpt lat="45.3798" lon="3.7466">
        <ele>662.70001220703</ele>
        <time>2012-01-28T09:13:26Z</time>
      </trkpt>
      <trkpt lat="45.37983" lon="3.74665">
        <ele>662.70001220703</ele>
        <time>2012-01-28T09:13:27Z</time>
      </trkpt>
      <trkpt lat="45.37986" lon="3.74674">
        <ele>662.40002441406</ele>
        <time>2012-01-28T09:13:31Z</time>
      </trkpt>
      <trkpt lat="45.3799" lon="3.74681">
        <ele>660</ele>
        <time>2012-01-28T09:13:34Z</time>
      </trkpt>
      <trkpt lat="45.37993" lon="3.74687">
        <ele>658.79998779297</ele>
        <time>2012-01-28T09:13:36Z</time>
      </trkpt>
      <trkpt lat="45.37998" lon="3.74694">
        <ele>660.5</ele>
        <time>2012-01-28T09:13:39Z</time>
      </trkpt>
      <trkpt lat="45.38002" lon="3.747">
        <ele>657.70001220703</ele>
        <time>2012-01-28T09:13:42Z</time>
      </trkpt>
      <trkpt lat="45.38005" lon="3.74706">
        <ele>657.09997558594</ele>
        <time>2012-01-28T09:13:44Z</time>
      </trkpt>
      <trkpt lat="45.3801" lon="3.74711">
        <ele>657.20001220703</ele>
        <time>2012-01-28T09:13:46Z</time>
      </trkpt>
      <trkpt lat="45.38015" lon="3.74719">
        <ele>657.29998779297</ele>
        <time>2012-01-28T09:13:50Z</time>
      </trkpt>
      <trkpt lat="45.38019" lon="3.74724">
        <ele>657</ele>
        <time>2012-01-28T09:13:51Z</time>
      </trkpt>
      <trkpt lat="45.38024" lon="3.74728">
        <ele>655.09997558594</ele>
        <time>2012-01-28T09:13:55Z</time>
      </trkpt>
      <trkpt lat="45.38028" lon="3.74732">
        <ele>656.5</ele>
        <time>2012-01-28T09:13:57Z</time>
      </trkpt>
      <trkpt lat="45.38033" lon="3.74737">
        <ele>655.09997558594</ele>
        <time>2012-01-28T09:13:59Z</time>
      </trkpt>
      <trkpt lat="45.38037" lon="3.74742">
        <ele>655.40002441406</ele>
        <time>2012-01-28T09:14:01Z</time>
      </trkpt>
      <trkpt lat="45.3804" lon="3.74747">
        <ele>656.09997558594</ele>
        <time>2012-01-28T09:14:03Z</time>
      </trkpt>
      <trkpt lat="45.38043" lon="3.74751">
        <ele>655.40002441406</ele>
        <time>2012-01-28T09:14:06Z</time>
      </trkpt>
      <trkpt lat="45.38048" lon="3.74756">
        <ele>654.79998779297</ele>
        <time>2012-01-28T09:14:08Z</time>
      </trkpt>
      <trkpt lat="45.38059" lon="3.74762">
        <ele>651.20001220703</ele>
        <time>2012-01-28T09:14:12Z</time>
      </trkpt>
      <trkpt lat="45.38069" lon="3.74771">
        <ele>649.40002441406</ele>
        <time>2012-01-28T09:14:19Z</time>
      </trkpt>
      <trkpt lat="45.38075" lon="3.74772">
        <ele>648.20001220703</ele>
        <time>2012-01-28T09:14:21Z</time>
      </trkpt>
      <trkpt lat="45.38081" lon="3.74781">
        <ele>649.79998779297</ele>
        <time>2012-01-28T09:14:25Z</time>
      </trkpt>
      <trkpt lat="45.38084" lon="3.74787">
        <ele>651.20001220703</ele>
        <time>2012-01-28T09:14:27Z</time>
      </trkpt>
      <trkpt lat="45.38088" lon="3.74792">
        <ele>650.29998779297</ele>
        <time>2012-01-28T09:14:28Z</time>
      </trkpt>
      <trkpt lat="45.38093" lon="3.74797">
        <ele>649.5</ele>
        <time>2012-01-28T09:14:31Z</time>
      </trkpt>
      <trkpt lat="45.38095" lon="3.74803">
        <ele>651.59997558594</ele>
        <time>2012-01-28T09:14:34Z</time>
      </trkpt>
      <trkpt lat="45.381" lon="3.74805">
        <ele>645</ele>
        <time>2012-01-28T09:14:37Z</time>
      </trkpt>
      <trkpt lat="45.3811" lon="3.74817">
        <ele>643.70001220703</ele>
        <time>2012-01-28T09:14:41Z</time>
      </trkpt>
      <trkpt lat="45.38116" lon="3.74831">
        <ele>643.70001220703</ele>
        <time>2012-01-28T09:14:46Z</time>
      </trkpt>
      <trkpt lat="45.38122" lon="3.74853">
        <ele>648.09997558594</ele>
        <time>2012-01-28T09:14:54Z</time>
      </trkpt>
      <trkpt lat="45.38122" lon="3.74861">
        <ele>650</ele>
        <time>2012-01-28T09:14:55Z</time>
      </trkpt>
      <trkpt lat="45.38127" lon="3.74867">
        <ele>648.20001220703</ele>
        <time>2012-01-28T09:14:58Z</time>
      </trkpt>
      <trkpt lat="45.38131" lon="3.74874">
        <ele>645.90002441406</ele>
        <time>2012-01-28T09:15:01Z</time>
      </trkpt>
      <trkpt lat="45.38135" lon="3.74879">
        <ele>645.90002441406</ele>
        <time>2012-01-28T09:15:03Z</time>
      </trkpt>
      <trkpt lat="45.38141" lon="3.74886">
        <ele>646.5</ele>
        <time>2012-01-28T09:15:07Z</time>
      </trkpt>
      <trkpt lat="45.38145" lon="3.7489">
        <ele>646.29998779297</ele>
        <time>2012-01-28T09:15:08Z</time>
      </trkpt>
      <trkpt lat="45.3815" lon="3.74897">
        <ele>647.70001220703</ele>
        <time>2012-01-28T09:15:12Z</time>
      </trkpt>
      <trkpt lat="45.38156" lon="3.74904">
        <ele>651.09997558594</ele>
        <time>2012-01-28T09:15:14Z</time>
      </trkpt>
      <trkpt lat="45.38161" lon="3.74908">
        <ele>652</ele>
        <time>2012-01-28T09:15:16Z</time>
      </trkpt>
      <trkpt lat="45.3817" lon="3.74921">
        <ele>651.5</ele>
        <time>2012-01-28T09:15:22Z</time>
      </trkpt>
      <trkpt lat="45.38173" lon="3.74926">
        <ele>652.40002441406</ele>
        <time>2012-01-28T09:15:24Z</time>
      </trkpt>
      <trkpt lat="45.3818" lon="3.74929">
        <ele>653.59997558594</ele>
        <time>2012-01-28T09:15:28Z</time>
      </trkpt>
      <trkpt lat="45.38184" lon="3.74933">
        <ele>653</ele>
        <time>2012-01-28T09:15:29Z</time>
      </trkpt>
      <trkpt lat="45.38189" lon="3.74936">
        <ele>651.90002441406</ele>
        <time>2012-01-28T09:15:32Z</time>
      </trkpt>
      <trkpt lat="45.38193" lon="3.74942">
        <ele>652.90002441406</ele>
        <time>2012-01-28T09:15:35Z</time>
      </trkpt>
      <trkpt lat="45.38198" lon="3.74947">
        <ele>651.40002441406</ele>
        <time>2012-01-28T09:15:38Z</time>
      </trkpt>
      <trkpt lat="45.38204" lon="3.74953">
        <ele>651.09997558594</ele>
        <time>2012-01-28T09:15:41Z</time>
      </trkpt>
      <trkpt lat="45.38208" lon="3.74957">
        <ele>652.5</ele>
        <time>2012-01-28T09:15:43Z</time>
      </trkpt>
      <trkpt lat="45.38212" lon="3.74962">
        <ele>653.40002441406</ele>
        <time>2012-01-28T09:15:45Z</time>
      </trkpt>
      <trkpt lat="45.38217" lon="3.74969">
        <ele>654.09997558594</ele>
        <time>2012-01-28T09:15:47Z</time>
      </trkpt>
      <trkpt lat="45.3822" lon="3.74974">
        <ele>654.5</ele>
        <time>2012-01-28T09:15:49Z</time>
      </trkpt>
      <trkpt lat="45.38224" lon="3.74981">
        <ele>654.29998779297</ele>
        <time>2012-01-28T09:15:52Z</time>
      </trkpt>
      <trkpt lat="45.38227" lon="3.74986">
        <ele>654.79998779297</ele>
        <time>2012-01-28T09:15:55Z</time>
      </trkpt>
      <trkpt lat="45.3823" lon="3.74996">
        <ele>656.40002441406</ele>
        <time>2012-01-28T09:15:57Z</time>
      </trkpt>
      <trkpt lat="45.38232" lon="3.75001">
        <ele>658.09997558594</ele>
        <time>2012-01-28T09:15:59Z</time>
      </trkpt>
      <trkpt lat="45.38234" lon="3.75009">
        <ele>658.5</ele>
        <time>2012-01-28T09:16:03Z</time>
      </trkpt>
      <trkpt lat="45.38237" lon="3.75017">
        <ele>658.29998779297</ele>
        <time>2012-01-28T09:16:06Z</time>
      </trkpt>
      <trkpt lat="45.3824" lon="3.75023">
        <ele>658.70001220703</ele>
        <time>2012-01-28T09:16:08Z</time>
      </trkpt>
      <trkpt lat="45.38242" lon="3.7503">
        <ele>657.59997558594</ele>
        <time>2012-01-28T09:16:10Z</time>
      </trkpt>
      <trkpt lat="45.38243" lon="3.75038">
        <ele>656</ele>
        <time>2012-01-28T09:16:13Z</time>
      </trkpt>
      <trkpt lat="45.38244" lon="3.75048">
        <ele>656.5</ele>
        <time>2012-01-28T09:16:16Z</time>
      </trkpt>
      <trkpt lat="45.38244" lon="3.75056">
        <ele>657.20001220703</ele>
        <time>2012-01-28T09:16:18Z</time>
      </trkpt>
      <trkpt lat="45.38246" lon="3.75065">
        <ele>655.29998779297</ele>
        <time>2012-01-28T09:16:21Z</time>
      </trkpt>
      <trkpt lat="45.38248" lon="3.7507">
        <ele>654.79998779297</ele>
        <time>2012-01-28T09:16:23Z</time>
      </trkpt>
      <trkpt lat="45.3825" lon="3.75077">
        <ele>653.90002441406</ele>
        <time>2012-01-28T09:16:27Z</time>
      </trkpt>
      <trkpt lat="45.38259" lon="3.75099">
        <ele>654</ele>
        <time>2012-01-28T09:16:36Z</time>
      </trkpt>
      <trkpt lat="45.38261" lon="3.75105">
        <ele>656.5</ele>
        <time>2012-01-28T09:16:37Z</time>
      </trkpt>
      <trkpt lat="45.38264" lon="3.75112">
        <ele>658.79998779297</ele>
        <time>2012-01-28T09:16:39Z</time>
      </trkpt>
      <trkpt lat="45.38267" lon="3.7512">
        <ele>659.09997558594</ele>
        <time>2012-01-28T09:16:44Z</time>
      </trkpt>
      <trkpt lat="45.38261" lon="3.75125">
        <ele>657.79998779297</ele>
        <time>2012-01-28T09:16:47Z</time>
      </trkpt>
      <trkpt lat="45.3826" lon="3.75132">
        <ele>658.09997558594</ele>
        <time>2012-01-28T09:16:49Z</time>
      </trkpt>
      <trkpt lat="45.38256" lon="3.75137">
        <ele>658.09997558594</ele>
        <time>2012-01-28T09:16:52Z</time>
      </trkpt>
      <trkpt lat="45.38252" lon="3.75142">
        <ele>656.79998779297</ele>
        <time>2012-01-28T09:16:54Z</time>
      </trkpt>
      <trkpt lat="45.38249" lon="3.7515">
        <ele>658.70001220703</ele>
        <time>2012-01-28T09:16:57Z</time>
      </trkpt>
      <trkpt lat="45.38243" lon="3.75172">
        <ele>659.29998779297</ele>
        <time>2012-01-28T09:17:06Z</time>
      </trkpt>
      <trkpt lat="45.38237" lon="3.75181">
        <ele>659.29998779297</ele>
        <time>2012-01-28T09:17:09Z</time>
      </trkpt>
      <trkpt lat="45.38233" lon="3.75189">
        <ele>656.09997558594</ele>
        <time>2012-01-28T09:17:14Z</time>
      </trkpt>
      <trkpt lat="45.38231" lon="3.75195">
        <ele>656.20001220703</ele>
        <time>2012-01-28T09:17:16Z</time>
      </trkpt>
      <trkpt lat="45.38241" lon="3.75212">
        <ele>655.59997558594</ele>
        <time>2012-01-28T09:17:24Z</time>
      </trkpt>
      <trkpt lat="45.38245" lon="3.75217">
        <ele>653</ele>
        <time>2012-01-28T09:17:27Z</time>
      </trkpt>
      <trkpt lat="45.38249" lon="3.75222">
        <ele>653</ele>
        <time>2012-01-28T09:17:30Z</time>
      </trkpt>
      <trkpt lat="45.38256" lon="3.75229">
        <ele>652.59997558594</ele>
        <time>2012-01-28T09:17:34Z</time>
      </trkpt>
      <trkpt lat="45.38255" lon="3.75238">
        <ele>652.70001220703</ele>
        <time>2012-01-28T09:17:37Z</time>
      </trkpt>
      <trkpt lat="45.38251" lon="3.75245">
        <ele>650.79998779297</ele>
        <time>2012-01-28T09:17:40Z</time>
      </trkpt>
      <trkpt lat="45.38243" lon="3.75254">
        <ele>647.59997558594</ele>
        <time>2012-01-28T09:17:46Z</time>
      </trkpt>
      <trkpt lat="45.38235" lon="3.75262">
        <ele>651.40002441406</ele>
        <time>2012-01-28T09:17:53Z</time>
      </trkpt>
      <trkpt lat="45.3823" lon="3.75269">
        <ele>652.09997558594</ele>
        <time>2012-01-28T09:17:55Z</time>
      </trkpt>
      <trkpt lat="45.38227" lon="3.75274">
        <ele>654.20001220703</ele>
        <time>2012-01-28T09:17:57Z</time>
      </trkpt>
      <trkpt lat="45.38223" lon="3.75279">
        <ele>655</ele>
        <time>2012-01-28T09:17:58Z</time>
      </trkpt>
      <trkpt lat="45.38219" lon="3.75284">
        <ele>655.5</ele>
        <time>2012-01-28T09:18:01Z</time>
      </trkpt>
      <trkpt lat="45.38216" lon="3.7529">
        <ele>658.70001220703</ele>
        <time>2012-01-28T09:18:03Z</time>
      </trkpt>
      <trkpt lat="45.38212" lon="3.75294">
        <ele>659.29998779297</ele>
        <time>2012-01-28T09:18:05Z</time>
      </trkpt>
      <trkpt lat="45.38208" lon="3.753">
        <ele>659.40002441406</ele>
        <time>2012-01-28T09:18:07Z</time>
      </trkpt>
      <trkpt lat="45.38199" lon="3.75311">
        <ele>662.70001220703</ele>
        <time>2012-01-28T09:18:11Z</time>
      </trkpt>
      <trkpt lat="45.38195" lon="3.75315">
        <ele>663.90002441406</ele>
        <time>2012-01-28T09:18:14Z</time>
      </trkpt>
      <trkpt lat="45.38191" lon="3.7532">
        <ele>665.5</ele>
        <time>2012-01-28T09:18:15Z</time>
      </trkpt>
      <trkpt lat="45.38189" lon="3.75326">
        <ele>667</ele>
        <time>2012-01-28T09:18:18Z</time>
      </trkpt>
      <trkpt lat="45.38184" lon="3.7533">
        <ele>666.29998779297</ele>
        <time>2012-01-28T09:18:21Z</time>
      </trkpt>
      <trkpt lat="45.38181" lon="3.75335">
        <ele>668</ele>
        <time>2012-01-28T09:18:23Z</time>
      </trkpt>
      <trkpt lat="45.38175" lon="3.7534">
        <ele>668.90002441406</ele>
        <time>2012-01-28T09:18:25Z</time>
      </trkpt>
      <trkpt lat="45.38172" lon="3.75345">
        <ele>668.09997558594</ele>
        <time>2012-01-28T09:18:29Z</time>
      </trkpt>
      <trkpt lat="45.38167" lon="3.75349">
        <ele>665.09997558594</ele>
        <time>2012-01-28T09:18:35Z</time>
      </trkpt>
      <trkpt lat="45.38158" lon="3.75358">
        <ele>662.90002441406</ele>
        <time>2012-01-28T09:18:42Z</time>
      </trkpt>
      <trkpt lat="45.38151" lon="3.7536">
        <ele>664.29998779297</ele>
        <time>2012-01-28T09:18:49Z</time>
      </trkpt>
      <trkpt lat="45.38147" lon="3.75367">
        <ele>662</ele>
        <time>2012-01-28T09:18:53Z</time>
      </trkpt>
      <trkpt lat="45.38143" lon="3.75373">
        <ele>663.59997558594</ele>
        <time>2012-01-28T09:19:01Z</time>
      </trkpt>
      <trkpt lat="45.38139" lon="3.75377">
        <ele>662.90002441406</ele>
        <time>2012-01-28T09:19:06Z</time>
      </trkpt>
      <trkpt lat="45.38135" lon="3.75382">
        <ele>662.5</ele>
        <time>2012-01-28T09:19:09Z</time>
      </trkpt>
      <trkpt lat="45.3813" lon="3.75386">
        <ele>661.79998779297</ele>
        <time>2012-01-28T09:19:12Z</time>
      </trkpt>
      <trkpt lat="45.38125" lon="3.7539">
        <ele>663.20001220703</ele>
        <time>2012-01-28T09:19:15Z</time>
      </trkpt>
      <trkpt lat="45.38119" lon="3.75395">
        <ele>664.29998779297</ele>
        <time>2012-01-28T09:19:18Z</time>
      </trkpt>
      <trkpt lat="45.38115" lon="3.75398">
        <ele>665.20001220703</ele>
        <time>2012-01-28T09:19:20Z</time>
      </trkpt>
      <trkpt lat="45.3811" lon="3.75405">
        <ele>664.59997558594</ele>
        <time>2012-01-28T09:19:22Z</time>
      </trkpt>
      <trkpt lat="45.38103" lon="3.75413">
        <ele>663.5</ele>
        <time>2012-01-28T09:19:27Z</time>
      </trkpt>
      <trkpt lat="45.38101" lon="3.75419">
        <ele>661.5</ele>
        <time>2012-01-28T09:19:30Z</time>
      </trkpt>
      <trkpt lat="45.38096" lon="3.75425">
        <ele>661.79998779297</ele>
        <time>2012-01-28T09:19:34Z</time>
      </trkpt>
      <trkpt lat="45.38093" lon="3.7543">
        <ele>661.09997558594</ele>
        <time>2012-01-28T09:19:36Z</time>
      </trkpt>
      <trkpt lat="45.38088" lon="3.75436">
        <ele>661.09997558594</ele>
        <time>2012-01-28T09:19:39Z</time>
      </trkpt>
      <trkpt lat="45.38085" lon="3.75441">
        <ele>661.90002441406</ele>
        <time>2012-01-28T09:19:41Z</time>
      </trkpt>
      <trkpt lat="45.38082" lon="3.75445">
        <ele>662.40002441406</ele>
        <time>2012-01-28T09:19:43Z</time>
      </trkpt>
      <trkpt lat="45.38078" lon="3.7545">
        <ele>662.70001220703</ele>
        <time>2012-01-28T09:19:45Z</time>
      </trkpt>
      <trkpt lat="45.38073" lon="3.75454">
        <ele>663.29998779297</ele>
        <time>2012-01-28T09:19:46Z</time>
      </trkpt>
      <trkpt lat="45.38061" lon="3.75465">
        <ele>663.59997558594</ele>
        <time>2012-01-28T09:19:52Z</time>
      </trkpt>
      <trkpt lat="45.38056" lon="3.75469">
        <ele>662.5</ele>
        <time>2012-01-28T09:19:55Z</time>
      </trkpt>
      <trkpt lat="45.3805" lon="3.75471">
        <ele>662.59997558594</ele>
        <time>2012-01-28T09:19:57Z</time>
      </trkpt>
      <trkpt lat="45.38045" lon="3.75474">
        <ele>662.40002441406</ele>
        <time>2012-01-28T09:19:59Z</time>
      </trkpt>
      <trkpt lat="45.38037" lon="3.75479">
        <ele>661.40002441406</ele>
        <time>2012-01-28T09:20:03Z</time>
      </trkpt>
      <trkpt lat="45.38032" lon="3.75485">
        <ele>662.59997558594</ele>
        <time>2012-01-28T09:20:06Z</time>
      </trkpt>
      <trkpt lat="45.38026" lon="3.75488">
        <ele>663.70001220703</ele>
        <time>2012-01-28T09:20:09Z</time>
      </trkpt>
      <trkpt lat="45.38021" lon="3.75492">
        <ele>662.5</ele>
        <time>2012-01-28T09:20:12Z</time>
      </trkpt>
      <trkpt lat="45.38015" lon="3.75495">
        <ele>662.59997558594</ele>
        <time>2012-01-28T09:20:15Z</time>
      </trkpt>
      <trkpt lat="45.38011" lon="3.75498">
        <ele>664.70001220703</ele>
        <time>2012-01-28T09:20:18Z</time>
      </trkpt>
      <trkpt lat="45.38006" lon="3.75504">
        <ele>666.5</ele>
        <time>2012-01-28T09:20:20Z</time>
      </trkpt>
      <trkpt lat="45.38002" lon="3.75506">
        <ele>666.40002441406</ele>
        <time>2012-01-28T09:20:23Z</time>
      </trkpt>
      <trkpt lat="45.37998" lon="3.75509">
        <ele>666.09997558594</ele>
        <time>2012-01-28T09:20:25Z</time>
      </trkpt>
      <trkpt lat="45.37982" lon="3.75524">
        <ele>664.20001220703</ele>
        <time>2012-01-28T09:20:35Z</time>
      </trkpt>
      <trkpt lat="45.37977" lon="3.75529">
        <ele>666.70001220703</ele>
        <time>2012-01-28T09:20:36Z</time>
      </trkpt>
      <trkpt lat="45.37972" lon="3.7553">
        <ele>667</ele>
        <time>2012-01-28T09:20:38Z</time>
      </trkpt>
      <trkpt lat="45.37967" lon="3.75535">
        <ele>668.29998779297</ele>
        <time>2012-01-28T09:20:41Z</time>
      </trkpt>
      <trkpt lat="45.37962" lon="3.75539">
        <ele>668</ele>
        <time>2012-01-28T09:20:43Z</time>
      </trkpt>
      <trkpt lat="45.37957" lon="3.75541">
        <ele>669</ele>
        <time>2012-01-28T09:20:45Z</time>
      </trkpt>
      <trkpt lat="45.37952" lon="3.75544">
        <ele>669.90002441406</ele>
        <time>2012-01-28T09:20:48Z</time>
      </trkpt>
      <trkpt lat="45.37948" lon="3.75549">
        <ele>669.79998779297</ele>
        <time>2012-01-28T09:20:50Z</time>
      </trkpt>
      <trkpt lat="45.37943" lon="3.75553">
        <ele>669.09997558594</ele>
        <time>2012-01-28T09:20:54Z</time>
      </trkpt>
      <trkpt lat="45.37939" lon="3.75557">
        <ele>670.5</ele>
        <time>2012-01-28T09:20:56Z</time>
      </trkpt>
      <trkpt lat="45.37928" lon="3.75564">
        <ele>669.70001220703</ele>
        <time>2012-01-28T09:21:03Z</time>
      </trkpt>
      <trkpt lat="45.37921" lon="3.75568">
        <ele>669.29998779297</ele>
        <time>2012-01-28T09:21:06Z</time>
      </trkpt>
      <trkpt lat="45.37917" lon="3.75569">
        <ele>670.09997558594</ele>
        <time>2012-01-28T09:21:08Z</time>
      </trkpt>
      <trkpt lat="45.37911" lon="3.75572">
        <ele>672.5</ele>
        <time>2012-01-28T09:21:10Z</time>
      </trkpt>
      <trkpt lat="45.37906" lon="3.75575">
        <ele>672.20001220703</ele>
        <time>2012-01-28T09:21:12Z</time>
      </trkpt>
      <trkpt lat="45.37901" lon="3.75578">
        <ele>669.40002441406</ele>
        <time>2012-01-28T09:21:16Z</time>
      </trkpt>
      <trkpt lat="45.37897" lon="3.75581">
        <ele>668.5</ele>
        <time>2012-01-28T09:21:18Z</time>
      </trkpt>
      <trkpt lat="45.37891" lon="3.75585">
        <ele>670.40002441406</ele>
        <time>2012-01-28T09:21:22Z</time>
      </trkpt>
      <trkpt lat="45.37885" lon="3.75589">
        <ele>671.79998779297</ele>
        <time>2012-01-28T09:21:24Z</time>
      </trkpt>
      <trkpt lat="45.3788" lon="3.75593">
        <ele>670.40002441406</ele>
        <time>2012-01-28T09:21:28Z</time>
      </trkpt>
      <trkpt lat="45.37871" lon="3.75597">
        <ele>670.40002441406</ele>
        <time>2012-01-28T09:21:33Z</time>
      </trkpt>
      <trkpt lat="45.37867" lon="3.75599">
        <ele>671</ele>
        <time>2012-01-28T09:21:34Z</time>
      </trkpt>
      <trkpt lat="45.37862" lon="3.75602">
        <ele>670.40002441406</ele>
        <time>2012-01-28T09:21:37Z</time>
      </trkpt>
      <trkpt lat="45.37857" lon="3.75605">
        <ele>671</ele>
        <time>2012-01-28T09:21:40Z</time>
      </trkpt>
      <trkpt lat="45.37852" lon="3.7561">
        <ele>669.09997558594</ele>
        <time>2012-01-28T09:21:43Z</time>
      </trkpt>
      <trkpt lat="45.37844" lon="3.75616">
        <ele>670.09997558594</ele>
        <time>2012-01-28T09:21:47Z</time>
      </trkpt>
      <trkpt lat="45.37827" lon="3.75631">
        <ele>672.79998779297</ele>
        <time>2012-01-28T09:21:55Z</time>
      </trkpt>
      <trkpt lat="45.37823" lon="3.75637">
        <ele>675</ele>
        <time>2012-01-28T09:21:58Z</time>
      </trkpt>
      <trkpt lat="45.37818" lon="3.75637">
        <ele>677.09997558594</ele>
        <time>2012-01-28T09:22:00Z</time>
      </trkpt>
      <trkpt lat="45.37812" lon="3.75638">
        <ele>677.20001220703</ele>
        <time>2012-01-28T09:22:03Z</time>
      </trkpt>
      <trkpt lat="45.37806" lon="3.75645">
        <ele>680.5</ele>
        <time>2012-01-28T09:22:06Z</time>
      </trkpt>
      <trkpt lat="45.37799" lon="3.75652">
        <ele>679.40002441406</ele>
        <time>2012-01-28T09:22:10Z</time>
      </trkpt>
      <trkpt lat="45.37793" lon="3.75656">
        <ele>681</ele>
        <time>2012-01-28T09:22:13Z</time>
      </trkpt>
      <trkpt lat="45.37788" lon="3.75661">
        <ele>681</ele>
        <time>2012-01-28T09:22:14Z</time>
      </trkpt>
      <trkpt lat="45.37784" lon="3.75664">
        <ele>680.40002441406</ele>
        <time>2012-01-28T09:22:16Z</time>
      </trkpt>
      <trkpt lat="45.37779" lon="3.75669">
        <ele>682</ele>
        <time>2012-01-28T09:22:19Z</time>
      </trkpt>
      <trkpt lat="45.37773" lon="3.75673">
        <ele>682.90002441406</ele>
        <time>2012-01-28T09:22:23Z</time>
      </trkpt>
      <trkpt lat="45.37767" lon="3.75674">
        <ele>684.90002441406</ele>
        <time>2012-01-28T09:22:26Z</time>
      </trkpt>
      <trkpt lat="45.37762" lon="3.75675">
        <ele>685</ele>
        <time>2012-01-28T09:22:27Z</time>
      </trkpt>
      <trkpt lat="45.37758" lon="3.75678">
        <ele>683.09997558594</ele>
        <time>2012-01-28T09:22:30Z</time>
      </trkpt>
      <trkpt lat="45.37752" lon="3.75683">
        <ele>681.59997558594</ele>
        <time>2012-01-28T09:22:34Z</time>
      </trkpt>
      <trkpt lat="45.37747" lon="3.75686">
        <ele>678.29998779297</ele>
        <time>2012-01-28T09:22:38Z</time>
      </trkpt>
      <trkpt lat="45.37742" lon="3.75689">
        <ele>678</ele>
        <time>2012-01-28T09:22:40Z</time>
      </trkpt>
      <trkpt lat="45.37737" lon="3.75691">
        <ele>678.90002441406</ele>
        <time>2012-01-28T09:22:42Z</time>
      </trkpt>
      <trkpt lat="45.37732" lon="3.75693">
        <ele>678.09997558594</ele>
        <time>2012-01-28T09:22:45Z</time>
      </trkpt>
      <trkpt lat="45.37728" lon="3.75695">
        <ele>677.79998779297</ele>
        <time>2012-01-28T09:22:46Z</time>
      </trkpt>
      <trkpt lat="45.37725" lon="3.757">
        <ele>678</ele>
        <time>2012-01-28T09:22:48Z</time>
      </trkpt>
      <trkpt lat="45.37721" lon="3.75705">
        <ele>679.70001220703</ele>
        <time>2012-01-28T09:22:51Z</time>
      </trkpt>
      <trkpt lat="45.37718" lon="3.75711">
        <ele>676.59997558594</ele>
        <time>2012-01-28T09:22:53Z</time>
      </trkpt>
      <trkpt lat="45.37715" lon="3.75716">
        <ele>676.90002441406</ele>
        <time>2012-01-28T09:22:55Z</time>
      </trkpt>
      <trkpt lat="45.37713" lon="3.75723">
        <ele>675.90002441406</ele>
        <time>2012-01-28T09:22:59Z</time>
      </trkpt>
      <trkpt lat="45.3771" lon="3.75729">
        <ele>671.40002441406</ele>
        <time>2012-01-28T09:23:01Z</time>
      </trkpt>
      <trkpt lat="45.37709" lon="3.75735">
        <ele>671.70001220703</ele>
        <time>2012-01-28T09:23:03Z</time>
      </trkpt>
      <trkpt lat="45.37706" lon="3.7574">
        <ele>670.5</ele>
        <time>2012-01-28T09:23:05Z</time>
      </trkpt>
      <trkpt lat="45.37703" lon="3.75746">
        <ele>669.79998779297</ele>
        <time>2012-01-28T09:23:07Z</time>
      </trkpt>
      <trkpt lat="45.37699" lon="3.75753">
        <ele>669.09997558594</ele>
        <time>2012-01-28T09:23:10Z</time>
      </trkpt>
      <trkpt lat="45.37696" lon="3.75761">
        <ele>669.40002441406</ele>
        <time>2012-01-28T09:23:13Z</time>
      </trkpt>
      <trkpt lat="45.37689" lon="3.75761">
        <ele>669.5</ele>
        <time>2012-01-28T09:23:16Z</time>
      </trkpt>
      <trkpt lat="45.37683" lon="3.75758">
        <ele>665.90002441406</ele>
        <time>2012-01-28T09:23:19Z</time>
      </trkpt>
      <trkpt lat="45.37679" lon="3.75756">
        <ele>665.5</ele>
        <time>2012-01-28T09:23:21Z</time>
      </trkpt>
      <trkpt lat="45.37674" lon="3.75751">
        <ele>665.20001220703</ele>
        <time>2012-01-28T09:23:24Z</time>
      </trkpt>
      <trkpt lat="45.37666" lon="3.75744">
        <ele>666.09997558594</ele>
        <time>2012-01-28T09:23:28Z</time>
      </trkpt>
      <trkpt lat="45.37663" lon="3.75739">
        <ele>665.20001220703</ele>
        <time>2012-01-28T09:23:30Z</time>
      </trkpt>
      <trkpt lat="45.37659" lon="3.7573">
        <ele>665.70001220703</ele>
        <time>2012-01-28T09:23:34Z</time>
      </trkpt>
      <trkpt lat="45.37654" lon="3.75712">
        <ele>665.20001220703</ele>
        <time>2012-01-28T09:23:39Z</time>
      </trkpt>
      <trkpt lat="45.37653" lon="3.75705">
        <ele>664.70001220703</ele>
        <time>2012-01-28T09:23:43Z</time>
      </trkpt>
      <trkpt lat="45.37651" lon="3.75699">
        <ele>663</ele>
        <time>2012-01-28T09:23:45Z</time>
      </trkpt>
      <trkpt lat="45.3765" lon="3.75693">
        <ele>662.29998779297</ele>
        <time>2012-01-28T09:23:46Z</time>
      </trkpt>
      <trkpt lat="45.37649" lon="3.75684">
        <ele>662.79998779297</ele>
        <time>2012-01-28T09:23:50Z</time>
      </trkpt>
      <trkpt lat="45.37648" lon="3.75677">
        <ele>663.40002441406</ele>
        <time>2012-01-28T09:23:52Z</time>
      </trkpt>
      <trkpt lat="45.37646" lon="3.75663">
        <ele>665.70001220703</ele>
        <time>2012-01-28T09:23:56Z</time>
      </trkpt>
      <trkpt lat="45.37643" lon="3.75657">
        <ele>666.5</ele>
        <time>2012-01-28T09:23:58Z</time>
      </trkpt>
      <trkpt lat="45.37641" lon="3.75647">
        <ele>664.70001220703</ele>
        <time>2012-01-28T09:24:01Z</time>
      </trkpt>
      <trkpt lat="45.37639" lon="3.7564">
        <ele>665.20001220703</ele>
        <time>2012-01-28T09:24:03Z</time>
      </trkpt>
      <trkpt lat="45.37637" lon="3.75634">
        <ele>665</ele>
        <time>2012-01-28T09:24:06Z</time>
      </trkpt>
      <trkpt lat="45.37636" lon="3.75627">
        <ele>665</ele>
        <time>2012-01-28T09:24:08Z</time>
      </trkpt>
      <trkpt lat="45.37634" lon="3.7562">
        <ele>664</ele>
        <time>2012-01-28T09:24:10Z</time>
      </trkpt>
      <trkpt lat="45.37632" lon="3.75611">
        <ele>665.59997558594</ele>
        <time>2012-01-28T09:24:13Z</time>
      </trkpt>
      <trkpt lat="45.3763" lon="3.75605">
        <ele>665.90002441406</ele>
        <time>2012-01-28T09:24:15Z</time>
      </trkpt>
      <trkpt lat="45.37628" lon="3.756">
        <ele>664.90002441406</ele>
        <time>2012-01-28T09:24:17Z</time>
      </trkpt>
      <trkpt lat="45.37626" lon="3.75593">
        <ele>665.5</ele>
        <time>2012-01-28T09:24:18Z</time>
      </trkpt>
      <trkpt lat="45.37624" lon="3.75587">
        <ele>666</ele>
        <time>2012-01-28T09:24:20Z</time>
      </trkpt>
      <trkpt lat="45.37621" lon="3.7558">
        <ele>665</ele>
        <time>2012-01-28T09:24:23Z</time>
      </trkpt>
      <trkpt lat="45.37614" lon="3.75561">
        <ele>666.90002441406</ele>
        <time>2012-01-28T09:24:30Z</time>
      </trkpt>
      <trkpt lat="45.37611" lon="3.75553">
        <ele>665.79998779297</ele>
        <time>2012-01-28T09:24:33Z</time>
      </trkpt>
      <trkpt lat="45.37607" lon="3.75543">
        <ele>665.20001220703</ele>
        <time>2012-01-28T09:24:36Z</time>
      </trkpt>
      <trkpt lat="45.37602" lon="3.75539">
        <ele>665.20001220703</ele>
        <time>2012-01-28T09:24:39Z</time>
      </trkpt>
      <trkpt lat="45.37598" lon="3.75536">
        <ele>665.90002441406</ele>
        <time>2012-01-28T09:24:42Z</time>
      </trkpt>
      <trkpt lat="45.37592" lon="3.75536">
        <ele>667.09997558594</ele>
        <time>2012-01-28T09:24:44Z</time>
      </trkpt>
      <trkpt lat="45.37587" lon="3.75536">
        <ele>669.09997558594</ele>
        <time>2012-01-28T09:24:45Z</time>
      </trkpt>
    </trkseg>
  </trk>
</gpx>